Observation data for Weinert on 06/15/2019      Previous  Date  Next       Current Mesonet Observations  Soil Data  Daily Summary Page  Observations in Plain Language
KWE1 150500Z 19014KT 27/18 A2978 RMK A01 T02670175  RH  057%=      5-min Rain = 0
KWE1 150501Z 19016KT 27/18 A2978 RMK A01 T02670175  RH  057%=      5-min Rain = 0
KWE1 150502Z 19016KT 27/18 A2978 RMK A01 T02670175  RH  057%=      5-min Rain = 0
KWE1 150503Z 19015KT 27/18 A2978 RMK A01 T02680175  RH  057%=      5-min Rain = 0
KWE1 150504Z 19016KT 27/18 A2978 RMK A01 T02680175  RH  057%=      5-min Rain = 0
KWE1 150505Z 19014KT 27/18 A2978 RMK A01 T02680175  RH  057%=      5-min Rain = 0
KWE1 150506Z 19015KT 27/18 A2978 RMK A01 T02670175  RH  057%=      5-min Rain = 0
KWE1 150507Z 19016KT 27/18 A2978 RMK A01 T02670175  RH  057%=      5-min Rain = 0
KWE1 150508Z 19015KT 27/18 A2978 RMK A01 T02670175  RH  057%=      5-min Rain = 0
KWE1 150509Z 19016KT 27/18 A2978 RMK A01 T02680175  RH  057%=      5-min Rain = 0
KWE1 150510Z 19015KT 27/18 A2978 RMK A01 T02680175  RH  057%=      5-min Rain = 0
KWE1 150511Z 19016KT 27/18 A2978 RMK A01 T02680175  RH  057%=      5-min Rain = 0
KWE1 150512Z 19013KT 27/18 A2979 RMK A01 T02680175  RH  057%=      5-min Rain = 0
KWE1 150513Z 19015KT 27/18 A2979 RMK A01 T02670175  RH  057%=      5-min Rain = 0
KWE1 150514Z 19015KT 27/18 A2979 RMK A01 T02660175  RH  057%=      5-min Rain = 0
KWE1 150515Z 19015KT 27/18 A2979 RMK A01 T02660175  RH  057%=      5-min Rain = 0
KWE1 150516Z 19016KT 27/18 A2979 RMK A01 T02660175  RH  057%=      5-min Rain = 0
KWE1 150517Z 19016KT 27/17 A2979 RMK A01 T02660174  RH  057%=      5-min Rain = 0
KWE1 150518Z 19014KT 27/17 A2979 RMK A01 T02670174  RH  057%=      5-min Rain = 0
KWE1 150519Z 19013KT 27/18 A2979 RMK A01 T02670175  RH  057%=      5-min Rain = 0
KWE1 150520Z 19012KT 27/18 A2979 RMK A01 T02660175  RH  057%=      5-min Rain = 0
KWE1 150521Z 19012KT 27/18 A2979 RMK A01 T02650175  RH  058%=      5-min Rain = 0
KWE1 150522Z 18013KT 26/18 A2979 RMK A01 T02640175  RH  058%=      5-min Rain = 0
KWE1 150523Z 19012KT 26/18 A2979 RMK A01 T02640175  RH  058%=      5-min Rain = 0
KWE1 150524Z 19012KT 26/18 A2979 RMK A01 T02640175  RH  058%=      5-min Rain = 0
KWE1 150525Z 19012KT 26/18 A2979 RMK A01 T02640175  RH  058%=      5-min Rain = 0
KWE1 150526Z 19012KT 26/18 A2979 RMK A01 T02630175  RH  058%=      5-min Rain = 0
KWE1 150527Z 19013KT 26/18 A2979 RMK A01 T02630175  RH  058%=      5-min Rain = 0
KWE1 150528Z 19012KT 26/17 A2979 RMK A01 T02630174  RH  058%=      5-min Rain = 0
KWE1 150529Z 19012KT 26/18 A2979 RMK A01 T02630175  RH  058%=      5-min Rain = 0
KWE1 150530Z 19012KT 26/17 A2979 RMK A01 T02630174  RH  058%=      5-min Rain = 0
KWE1 150531Z 19011KT 26/17 A2979 RMK A01 T02630174  RH  058%=      5-min Rain = 0
KWE1 150532Z 19012KT 26/17 A298 RMK A01 T02630174  RH  058%=      5-min Rain = 0
KWE1 150533Z 19012KT 26/17 A298 RMK A01 T02630174  RH  058%=      5-min Rain = 0
KWE1 150534Z 19013KT 26/17 A298 RMK A01 T02630174  RH  058%=      5-min Rain = 0
KWE1 150535Z 19012KT 26/17 A298 RMK A01 T02640174  RH  058%=      5-min Rain = 0
KWE1 150536Z 19011KT 26/17 A298 RMK A01 T02640173  RH  057%=      5-min Rain = 0
KWE1 150537Z 19010KT 27/17 A298 RMK A01 T02650174  RH  057%=      5-min Rain = 0
KWE1 150538Z 19011KT 27/17 A298 RMK A01 T02650174  RH  057%=      5-min Rain = 0
KWE1 150539Z 19013KT 27/17 A298 RMK A01 T02650174  RH  057%=      5-min Rain = 0
KWE1 150540Z 19010KT 27/17 A298 RMK A01 T02650173  RH  057%=      5-min Rain = 0
KWE1 150541Z 19011KT 27/17 A298 RMK A01 T02650173  RH  057%=      5-min Rain = 0
KWE1 150542Z 19011KT 27/17 A298 RMK A01 T02650173  RH  057%=      5-min Rain = 0
KWE1 150543Z 19010KT 27/17 A298 RMK A01 T02660173  RH  057%=      5-min Rain = 0
KWE1 150544Z 20010KT 27/17 A298 RMK A01 T02660173  RH  057%=      5-min Rain = 0
KWE1 150545Z 20009KT 27/17 A298 RMK A01 T02660173  RH  057%=      5-min Rain = 0
KWE1 150546Z 20010KT 27/17 A2981 RMK A01 T02660173  RH  057%=      5-min Rain = 0
KWE1 150547Z 20009KT 27/17 A2981 RMK A01 T02660174  RH  057%=      5-min Rain = 0
KWE1 150548Z 20008KT 27/17 A2981 RMK A01 T02660173  RH  057%=      5-min Rain = 0
KWE1 150549Z 21007KT 27/17 A2981 RMK A01 T02660173  RH  057%=      5-min Rain = 0
KWE1 150550Z 21007KT 27/17 A2981 RMK A01 T02650173  RH  057%=      5-min Rain = 0
KWE1 150551Z 21006KT 27/17 A2981 RMK A01 T02650173  RH  057%=      5-min Rain = 0
KWE1 150552Z 21006KT 26/17 A2981 RMK A01 T02640173  RH  057%=      5-min Rain = 0
KWE1 150553Z 22007KT 26/17 A2981 RMK A01 T02640173  RH  057%=      5-min Rain = 0
KWE1 150554Z 24006KT 26/17 A2982 RMK A01 T02640173  RH  057%=      5-min Rain = 0
KWE1 150555Z 24003KT 26/17 A2982 RMK A01 T02640173  RH  057%=      5-min Rain = 0
KWE1 150556Z 26003KT 26/17 A2982 RMK A01 T02640173  RH  057%=      5-min Rain = 0
KWE1 150557Z 28002KT 26/17 A2982 RMK A01 T02640174  RH  058%=      5-min Rain = 0
KWE1 150558Z 28003KT 26/17 A2982 RMK A01 T02630173  RH  058%=      5-min Rain = 0
KWE1 150559Z 31003KT 26/17 A2983 RMK A01 T02630174  RH  058%=      5-min Rain = 0
KWE1 150600Z 32003KT 26/18 A2983 RMK A01 T02630176  RH  059%=      5-min Rain = 0
KWE1 150601Z 33004KT 26/18 A2983 RMK A01 T02610176  RH  059%=      5-min Rain = 0
KWE1 150602Z 32003KT 26/18 A2983 RMK A01 T02600175  RH  060%=      5-min Rain = 0
KWE1 150603Z 34004KT 26/18 A2983 RMK A01 T02590176  RH  060%=      5-min Rain = 0
KWE1 150604Z 34005KT 26/18 A2983 RMK A01 T02580176  RH  060%=      5-min Rain = 0
KWE1 150605Z 34004KT 26/18 A2983 RMK A01 T02570176  RH  061%=      5-min Rain = 0
KWE1 150606Z 34005KT 26/18 A2983 RMK A01 T02570177  RH  061%=      5-min Rain = 0
KWE1 150607Z 34004KT 26/18 A2983 RMK A01 T02560178  RH  062%=      5-min Rain = 0
KWE1 150608Z 35002KT 26/18 A2983 RMK A01 T02550177  RH  062%=      5-min Rain = 0
KWE1 150609Z 35003KT 26/18 A2983 RMK A01 T02550177  RH  062%=      5-min Rain = 0
KWE1 150610Z 36003KT 25/18 A2983 RMK A01 T02540178  RH  063%=      5-min Rain = 0
KWE1 150611Z 35003KT 25/18 A2983 RMK A01 T02530179  RH  063%=      5-min Rain = 0
KWE1 150612Z 33002KT 25/18 A2983 RMK A01 T02530177  RH  063%=      5-min Rain = 0
KWE1 150613Z 34001KT 25/18 A2983 RMK A01 T02530176  RH  062%=      5-min Rain = 0
KWE1 150614Z 34001KT 25/18 A2983 RMK A01 T02530176  RH  062%=      5-min Rain = 0
KWE1 150615Z 30001KT 25/18 A2983 RMK A01 T02540178  RH  063%=      5-min Rain = 0
KWE1 150616Z 23000KT 25/18 A2983 RMK A01 T02540177  RH  063%=      5-min Rain = 0
KWE1 150617Z 22002KT 25/18 A2983 RMK A01 T02540175  RH  062%=      5-min Rain = 0
KWE1 150618Z 23002KT 26/17 A2983 RMK A01 T02550173  RH  061%=      5-min Rain = 0
KWE1 150619Z 24002KT 26/17 A2983 RMK A01 T02560174  RH  060%=      5-min Rain = 0
KWE1 150620Z 21004KT 26/17 A2983 RMK A01 T02570174  RH  060%=      5-min Rain = 0
KWE1 150621Z 22003KT 26/17 A2983 RMK A01 T02580174  RH  060%=      5-min Rain = 0
KWE1 150622Z 21004KT 26/17 A2983 RMK A01 T02580174  RH  060%=      5-min Rain = 0
KWE1 150623Z 21003KT 26/17 A2983 RMK A01 T02590173  RH  059%=      5-min Rain = 0
KWE1 150624Z 20003KT 26/17 A2983 RMK A01 T02600173  RH  059%=      5-min Rain = 0
KWE1 150625Z 18003KT 26/18 A2983 RMK A01 T02600175  RH  059%=      5-min Rain = 0
KWE1 150626Z 20003KT 26/18 A2983 RMK A01 T02590177  RH  060%=      5-min Rain = 0
KWE1 150627Z 21003KT 26/18 A2983 RMK A01 T02580176  RH  060%=      5-min Rain = 0
KWE1 150628Z 23002KT 26/18 A2983 RMK A01 T02580175  RH  060%=      5-min Rain = 0
KWE1 150629Z 22001KT 26/18 A2983 RMK A01 T02570175  RH  061%=      5-min Rain = 0
KWE1 150630Z 25001KT 26/18 A2983 RMK A01 T02560178  RH  062%=      5-min Rain = 0
KWE1 150631Z 28001KT 26/18 A2983 RMK A01 T02560177  RH  062%=      5-min Rain = 0
KWE1 150632Z 29001KT 26/18 A2983 RMK A01 T02550177  RH  062%=      5-min Rain = 0
KWE1 150633Z 30001KT 26/18 A2983 RMK A01 T02550177  RH  062%=      5-min Rain = 0
KWE1 150634Z 30001KT 25/18 A2983 RMK A01 T02540177  RH  062%=      5-min Rain = 0
KWE1 150635Z 33002KT 25/18 A2983 RMK A01 T02530178  RH  063%=      5-min Rain = 0
KWE1 150636Z 34004KT 25/18 A2983 RMK A01 T02520178  RH  063%=      5-min Rain = 0
KWE1 150637Z 35004KT 25/18 A2983 RMK A01 T02510177  RH  064%=      5-min Rain = 0
KWE1 150638Z 35004KT 25/18 A2983 RMK A01 T02490178  RH  065%=      5-min Rain = 0
KWE1 150639Z 00003KT 25/18 A2983 RMK A01 T02480178  RH  065%=      5-min Rain = 0
KWE1 150640Z 02004KT 25/18 A2983 RMK A01 T02480177  RH  065%=      5-min Rain = 0
KWE1 150641Z 02004KT 25/18 A2983 RMK A01 T02480179  RH  065%=      5-min Rain = 0
KWE1 150642Z 03004KT 25/18 A2983 RMK A01 T02460179  RH  066%=      5-min Rain = 0
KWE1 150643Z 03004KT 25/18 A2983 RMK A01 T02450180  RH  067%=      5-min Rain = 0
KWE1 150644Z 02003KT 24/18 A2983 RMK A01 T02440181  RH  068%=      5-min Rain = 0
KWE1 150645Z 03003KT 24/18 A2983 RMK A01 T02430181  RH  068%=      5-min Rain = 0
KWE1 150646Z 02003KT 24/18 A2983 RMK A01 T02420181  RH  069%=      5-min Rain = 0
KWE1 150647Z 03002KT 24/18 A2983 RMK A01 T02410178  RH  068%=      5-min Rain = 0
KWE1 150648Z 05002KT 24/18 A2983 RMK A01 T02420176  RH  067%=      5-min Rain = 0
KWE1 150649Z 06001KT 24/18 A2983 RMK A01 T02440178  RH  066%=      5-min Rain = 0
KWE1 150650Z 06001KT 24/18 A2983 RMK A01 T02440177  RH  066%=      5-min Rain = 0
KWE1 150651Z 06000KT 25/18 A2983 RMK A01 T02450176  RH  065%=      5-min Rain = 0
KWE1 150652Z 15000KT 25/17 A2983 RMK A01 T02460174  RH  064%=      5-min Rain = 0
KWE1 150653Z 14001KT 25/17 A2983 RMK A01 T02480173  RH  063%=      5-min Rain = 0
KWE1 150654Z 15001KT 25/17 A2982 RMK A01 T02500174  RH  062%=      5-min Rain = 0
KWE1 150655Z 16003KT 25/18 A2982 RMK A01 T02520176  RH  063%=      5-min Rain = 0
KWE1 150656Z 17003KT 25/18 A2982 RMK A01 T02510176  RH  063%=      5-min Rain = 0
KWE1 150657Z 18004KT 25/17 A2982 RMK A01 T02520174  RH  062%=      5-min Rain = 0
KWE1 150658Z 17005KT 25/18 A2982 RMK A01 T02530175  RH  062%=      5-min Rain = 0
KWE1 150659Z 17006KT 25/18 A2982 RMK A01 T02540176  RH  062%=      5-min Rain = 0
KWE1 150700Z 17004KT 25/18 A2982 RMK A01 T02530176  RH  062%=      5-min Rain = 0
KWE1 150701Z 16006KT 25/18 A2982 RMK A01 T02530177  RH  063%=      5-min Rain = 0
KWE1 150702Z 16007KT 25/18 A2982 RMK A01 T02510177  RH  063%=      5-min Rain = 0
KWE1 150703Z 16007KT 25/18 A2981 RMK A01 T02500176  RH  063%=      5-min Rain = 0
KWE1 150704Z 17007KT 25/18 A2981 RMK A01 T02500176  RH  064%=      5-min Rain = 0
KWE1 150705Z 17008KT 25/18 A2981 RMK A01 T02490177  RH  064%=      5-min Rain = 0
KWE1 150706Z 17008KT 25/18 A2981 RMK A01 T02480177  RH  065%=      5-min Rain = 0
KWE1 150707Z 17008KT 25/18 A2981 RMK A01 T02470177  RH  065%=      5-min Rain = 0
KWE1 150708Z 18010KT 25/18 A2981 RMK A01 T02460175  RH  064%=      5-min Rain = 0
KWE1 150709Z 17009KT 25/18 A2981 RMK A01 T02480175  RH  064%=      5-min Rain = 0
KWE1 150710Z 17009KT 25/18 A2981 RMK A01 T02500176  RH  063%=      5-min Rain = 0
KWE1 150711Z 17009KT 25/18 A2981 RMK A01 T02500175  RH  063%=      5-min Rain = 0
KWE1 150712Z 17010KT 25/18 A2981 RMK A01 T02510175  RH  063%=      5-min Rain = 0
KWE1 150713Z 17010KT 25/18 A2981 RMK A01 T02510175  RH  063%=      5-min Rain = 0
KWE1 150714Z 17009KT 25/17 A2981 RMK A01 T02520174  RH  062%=      5-min Rain = 0
KWE1 150715Z 16010KT 25/17 A2981 RMK A01 T02530174  RH  062%=      5-min Rain = 0
KWE1 150716Z 16009KT 25/17 A2981 RMK A01 T02530174  RH  061%=      5-min Rain = 0
KWE1 150717Z 17008KT 25/17 A2981 RMK A01 T02540174  RH  061%=      5-min Rain = 0
KWE1 150718Z 17009KT 25/17 A2981 RMK A01 T02540174  RH  061%=      5-min Rain = 0
KWE1 150719Z 16009KT 26/17 A298 RMK A01 T02550174  RH  061%=      5-min Rain = 0
KWE1 150720Z 17010KT 26/17 A298 RMK A01 T02550174  RH  061%=      5-min Rain = 0
KWE1 150721Z 16008KT 26/17 A298 RMK A01 T02550174  RH  061%=      5-min Rain = 0
KWE1 150722Z 17008KT 25/17 A298 RMK A01 T02540174  RH  061%=      5-min Rain = 0
KWE1 150723Z 17008KT 25/17 A298 RMK A01 T02540174  RH  061%=      5-min Rain = 0
KWE1 150724Z 17009KT 26/17 A298 RMK A01 T02550174  RH  061%=      5-min Rain = 0
KWE1 150725Z 17009KT 26/17 A298 RMK A01 T02550174  RH  061%=      5-min Rain = 0
KWE1 150726Z 17009KT 25/17 A298 RMK A01 T02540174  RH  061%=      5-min Rain = 0
KWE1 150727Z 16009KT 25/17 A298 RMK A01 T02540174  RH  061%=      5-min Rain = 0
KWE1 150728Z 17008KT 26/17 A298 RMK A01 T02550174  RH  061%=      5-min Rain = 0
KWE1 150729Z 17010KT 26/17 A298 RMK A01 T02550173  RH  061%=      5-min Rain = 0
KWE1 150730Z 16009KT 26/17 A298 RMK A01 T02560174  RH  061%=      5-min Rain = 0
KWE1 150731Z 17009KT 26/17 A298 RMK A01 T02560174  RH  061%=      5-min Rain = 0
KWE1 150732Z 17009KT 26/17 A298 RMK A01 T02560174  RH  061%=      5-min Rain = 0
KWE1 150733Z 17009KT 26/17 A298 RMK A01 T02550174  RH  061%=      5-min Rain = 0
KWE1 150734Z 17010KT 26/17 A298 RMK A01 T02560174  RH  061%=      5-min Rain = 0
KWE1 150735Z 18009KT 26/17 A298 RMK A01 T02550174  RH  061%=      5-min Rain = 0
KWE1 150736Z 17008KT 26/18 A298 RMK A01 T02550175  RH  061%=      5-min Rain = 0
KWE1 150737Z 17008KT 25/18 A298 RMK A01 T02540175  RH  062%=      5-min Rain = 0
KWE1 150738Z 17008KT 25/18 A298 RMK A01 T02540175  RH  062%=      5-min Rain = 0
KWE1 150739Z 17009KT 25/18 A298 RMK A01 T02540175  RH  062%=      5-min Rain = 0
KWE1 150740Z 17009KT 25/18 A298 RMK A01 T02540175  RH  062%=      5-min Rain = 0
KWE1 150741Z 16008KT 25/18 A298 RMK A01 T02540175  RH  062%=      5-min Rain = 0
KWE1 150742Z 17008KT 25/18 A298 RMK A01 T02540175  RH  062%=      5-min Rain = 0
KWE1 150743Z 17008KT 25/18 A298 RMK A01 T02540176  RH  062%=      5-min Rain = 0
KWE1 150744Z 17008KT 25/18 A298 RMK A01 T02530175  RH  062%=      5-min Rain = 0
KWE1 150745Z 17007KT 25/18 A298 RMK A01 T02530176  RH  062%=      5-min Rain = 0
KWE1 150746Z 16006KT 25/18 A298 RMK A01 T02520176  RH  063%=      5-min Rain = 0
KWE1 150747Z 17007KT 25/18 A298 RMK A01 T02510176  RH  063%=      5-min Rain = 0
KWE1 150748Z 17007KT 25/18 A298 RMK A01 T02500176  RH  063%=      5-min Rain = 0
KWE1 150749Z 17008KT 25/18 A298 RMK A01 T02490176  RH  064%=      5-min Rain = 0
KWE1 150750Z 16007KT 25/18 A298 RMK A01 T02490176  RH  064%=      5-min Rain = 0
KWE1 150751Z 17006KT 25/18 A298 RMK A01 T02490176  RH  064%=      5-min Rain = 0
KWE1 150752Z 17009KT 25/18 A298 RMK A01 T02480176  RH  064%=      5-min Rain = 0
KWE1 150753Z 17009KT 25/18 A298 RMK A01 T02480176  RH  064%=      5-min Rain = 0
KWE1 150754Z 17008KT 25/18 A298 RMK A01 T02490176  RH  064%=      5-min Rain = 0
KWE1 150755Z 17009KT 25/18 A298 RMK A01 T02490176  RH  064%=      5-min Rain = 0
KWE1 150756Z 17009KT 25/18 A298 RMK A01 T02490176  RH  064%=      5-min Rain = 0
KWE1 150757Z 17010KT 25/18 A298 RMK A01 T02490176  RH  064%=      5-min Rain = 0
KWE1 150758Z 17009KT 25/18 A298 RMK A01 T02490176  RH  064%=      5-min Rain = 0
KWE1 150759Z 17010KT 25/18 A298 RMK A01 T02500176  RH  064%=      5-min Rain = 0
KWE1 150800Z 17009KT 25/18 A2979 RMK A01 T02500176  RH  064%=      5-min Rain = 0
KWE1 150801Z 17010KT 25/18 A2979 RMK A01 T02500176  RH  064%=      5-min Rain = 0
KWE1 150802Z 17012KT 25/18 A2979 RMK A01 T02500177  RH  064%=      5-min Rain = 0
KWE1 150803Z 17011KT 25/18 A2979 RMK A01 T02500176  RH  064%=      5-min Rain = 0
KWE1 150804Z 17011KT 25/18 A2979 RMK A01 T02500176  RH  063%=      5-min Rain = 0
KWE1 150805Z 17012KT 25/18 A2979 RMK A01 T02510176  RH  063%=      5-min Rain = 0
KWE1 150806Z 17011KT 25/18 A2979 RMK A01 T02510177  RH  063%=      5-min Rain = 0
KWE1 150807Z 17011KT 25/18 A2979 RMK A01 T02510177  RH  063%=      5-min Rain = 0
KWE1 150808Z 17011KT 25/18 A2979 RMK A01 T02510176  RH  063%=      5-min Rain = 0
KWE1 150809Z 17011KT 25/18 A2979 RMK A01 T02510177  RH  064%=      5-min Rain = 0
KWE1 150810Z 17012KT 25/18 A2979 RMK A01 T02500177  RH  064%=      5-min Rain = 0
KWE1 150811Z 17012KT 25/18 A2979 RMK A01 T02500177  RH  064%=      5-min Rain = 0
KWE1 150812Z 17011KT 25/18 A2979 RMK A01 T02500177  RH  064%=      5-min Rain = 0
KWE1 150813Z 17012KT 25/18 A2979 RMK A01 T02500177  RH  064%=      5-min Rain = 0
KWE1 150814Z 17012KT 25/18 A2979 RMK A01 T02500177  RH  064%=      5-min Rain = 0
KWE1 150815Z 17012KT 25/18 A2979 RMK A01 T02500177  RH  064%=      5-min Rain = 0
KWE1 150816Z 17013KT 25/18 A2979 RMK A01 T02500178  RH  064%=      5-min Rain = 0
KWE1 150817Z 17013KT 25/18 A2979 RMK A01 T02500177  RH  064%=      5-min Rain = 0
KWE1 150818Z 17012KT 25/18 A2978 RMK A01 T02500178  RH  064%=      5-min Rain = 0
KWE1 150819Z 17014KT 25/18 A2978 RMK A01 T02500177  RH  064%=      5-min Rain = 0
KWE1 150820Z 17013KT 25/18 A2978 RMK A01 T02500177  RH  064%=      5-min Rain = 0
KWE1 150821Z 17012KT 25/18 A2978 RMK A01 T02510178  RH  064%=      5-min Rain = 0
KWE1 150822Z 17012KT 25/18 A2978 RMK A01 T02500178  RH  064%=      5-min Rain = 0
KWE1 150823Z 18012KT 25/18 A2978 RMK A01 T02500178  RH  064%=      5-min Rain = 0
KWE1 150824Z 18012KT 25/18 A2978 RMK A01 T02500178  RH  064%=      5-min Rain = 0
KWE1 150825Z 18012KT 25/18 A2978 RMK A01 T02490178  RH  065%=      5-min Rain = 0
KWE1 150826Z 17012KT 25/18 A2978 RMK A01 T02490178  RH  065%=      5-min Rain = 0
KWE1 150827Z 18012KT 25/18 A2978 RMK A01 T02490178  RH  065%=      5-min Rain = 0
KWE1 150828Z 17013KT 25/18 A2978 RMK A01 T02490178  RH  065%=      5-min Rain = 0
KWE1 150829Z 18015KT 25/18 A2978 RMK A01 T02490178  RH  064%=      5-min Rain = 0
KWE1 150830Z 18012KT 25/18 A2978 RMK A01 T02510177  RH  064%=      5-min Rain = 0
KWE1 150831Z 17013KT 25/18 A2978 RMK A01 T02520178  RH  064%=      5-min Rain = 0
KWE1 150832Z 17012KT 25/18 A2978 RMK A01 T02520178  RH  064%=      5-min Rain = 0
KWE1 150833Z 18012KT 25/18 A2978 RMK A01 T02510178  RH  064%=      5-min Rain = 0
KWE1 150834Z 18014KT 25/18 A2978 RMK A01 T02500178  RH  064%=      5-min Rain = 0
KWE1 150835Z 18013KT 25/18 A2978 RMK A01 T02500179  RH  064%=      5-min Rain = 0
KWE1 150836Z 18013KT 25/18 A2978 RMK A01 T02500179  RH  064%=      5-min Rain = 0
KWE1 150837Z 18012KT 25/18 A2978 RMK A01 T02500178  RH  064%=      5-min Rain = 0
KWE1 150838Z 18011KT 25/18 A2978 RMK A01 T02490178  RH  065%=      5-min Rain = 0
KWE1 150839Z 18012KT 25/18 A2978 RMK A01 T02490178  RH  065%=      5-min Rain = 0
KWE1 150840Z 18013KT 25/18 A2978 RMK A01 T02490178  RH  065%=      5-min Rain = 0
KWE1 150841Z 17014KT 25/18 A2978 RMK A01 T02490178  RH  065%=      5-min Rain = 0
KWE1 150842Z 18014KT 25/18 A2978 RMK A01 T02490178  RH  065%=      5-min Rain = 0
KWE1 150843Z 18013KT 25/18 A2978 RMK A01 T02490178  RH  065%=      5-min Rain = 0
KWE1 150844Z 18012KT 25/18 A2978 RMK A01 T02490179  RH  065%=      5-min Rain = 0
KWE1 150845Z 17011KT 25/18 A2978 RMK A01 T02490179  RH  065%=      5-min Rain = 0
KWE1 150846Z 18011KT 25/18 A2978 RMK A01 T02480179  RH  065%=      5-min Rain = 0
KWE1 150847Z 18012KT 25/18 A2978 RMK A01 T02480179  RH  065%=      5-min Rain = 0
KWE1 150848Z 18012KT 25/18 A2978 RMK A01 T02480179  RH  065%=      5-min Rain = 0
KWE1 150849Z 18014KT 25/18 A2978 RMK A01 T02480179  RH  065%=      5-min Rain = 0
KWE1 150850Z 18013KT 25/18 A2978 RMK A01 T02490179  RH  065%=      5-min Rain = 0
KWE1 150851Z 17014KT 25/18 A2978 RMK A01 T02490179  RH  065%=      5-min Rain = 0
KWE1 150852Z 18013KT 25/18 A2978 RMK A01 T02490179  RH  065%=      5-min Rain = 0
KWE1 150853Z 17013KT 25/18 A2978 RMK A01 T02490179  RH  065%=      5-min Rain = 0
KWE1 150854Z 18014KT 25/18 A2977 RMK A01 T02490179  RH  065%=      5-min Rain = 0
KWE1 150855Z 18013KT 25/18 A2977 RMK A01 T02480179  RH  065%=      5-min Rain = 0
KWE1 150856Z 18014KT 25/18 A2977 RMK A01 T02490179  RH  065%=      5-min Rain = 0
KWE1 150857Z 18013KT 25/18 A2977 RMK A01 T02490179  RH  065%=      5-min Rain = 0
KWE1 150858Z 17013KT 25/18 A2978 RMK A01 T02490179  RH  065%=      5-min Rain = 0
KWE1 150859Z 17013KT 25/18 A2978 RMK A01 T02490179  RH  065%=      5-min Rain = 0
KWE1 150900Z 17012KT 25/18 A2978 RMK A01 T02490179  RH  065%=      5-min Rain = 0
KWE1 150901Z 17013KT 25/18 A2977 RMK A01 T02480180  RH  066%=      5-min Rain = 0
KWE1 150902Z 17013KT 25/18 A2977 RMK A01 T02470180  RH  066%=      5-min Rain = 0
KWE1 150903Z 17012KT 25/18 A2977 RMK A01 T02460179  RH  066%=      5-min Rain = 0
KWE1 150904Z 17012KT 25/18 A2977 RMK A01 T02460180  RH  066%=      5-min Rain = 0
KWE1 150905Z 17011KT 25/18 A2977 RMK A01 T02460180  RH  067%=      5-min Rain = 0
KWE1 150906Z 17012KT 25/18 A2977 RMK A01 T02450180  RH  067%=      5-min Rain = 0
KWE1 150907Z 17013KT 25/18 A2977 RMK A01 T02450180  RH  067%=      5-min Rain = 0
KWE1 150908Z 17014KT 25/18 A2977 RMK A01 T02450180  RH  067%=      5-min Rain = 0
KWE1 150909Z 17013KT 25/18 A2977 RMK A01 T02450180  RH  067%=      5-min Rain = 0
KWE1 150910Z 17014KT 25/18 A2977 RMK A01 T02450179  RH  067%=      5-min Rain = 0
KWE1 150911Z 17012KT 25/18 A2977 RMK A01 T02460180  RH  067%=      5-min Rain = 0
KWE1 150912Z 18012KT 25/18 A2977 RMK A01 T02460181  RH  067%=      5-min Rain = 0
KWE1 150913Z 18013KT 25/18 A2977 RMK A01 T02450180  RH  067%=      5-min Rain = 0
KWE1 150914Z 17013KT 25/18 A2977 RMK A01 T02450180  RH  067%=      5-min Rain = 0
KWE1 150915Z 18012KT 25/18 A2977 RMK A01 T02450181  RH  067%=      5-min Rain = 0
KWE1 150916Z 17012KT 24/18 A2977 RMK A01 T02440180  RH  067%=      5-min Rain = 0
KWE1 150917Z 18012KT 24/18 A2977 RMK A01 T02440180  RH  068%=      5-min Rain = 0
KWE1 150918Z 18013KT 24/18 A2977 RMK A01 T02440180  RH  068%=      5-min Rain = 0
KWE1 150919Z 18013KT 24/18 A2977 RMK A01 T02440180  RH  067%=      5-min Rain = 0
KWE1 150920Z 18013KT 24/18 A2977 RMK A01 T02440180  RH  067%=      5-min Rain = 0
KWE1 150921Z 18014KT 25/18 A2977 RMK A01 T02450180  RH  067%=      5-min Rain = 0
KWE1 150922Z 17014KT 25/18 A2977 RMK A01 T02450180  RH  067%=      5-min Rain = 0
KWE1 150923Z 17014KT 25/18 A2977 RMK A01 T02450180  RH  067%=      5-min Rain = 0
KWE1 150924Z 18014KT 25/18 A2977 RMK A01 T02450181  RH  067%=      5-min Rain = 0
KWE1 150925Z 17014KT 25/18 A2977 RMK A01 T02450181  RH  067%=      5-min Rain = 0
KWE1 150926Z 18013KT 25/18 A2977 RMK A01 T02450180  RH  067%=      5-min Rain = 0
KWE1 150927Z 18013KT 25/18 A2977 RMK A01 T02450180  RH  067%=      5-min Rain = 0
KWE1 150928Z 18012KT 25/18 A2977 RMK A01 T02450181  RH  067%=      5-min Rain = 0
KWE1 150929Z 17012KT 25/18 A2977 RMK A01 T02450181  RH  067%=      5-min Rain = 0
KWE1 150930Z 17013KT 24/18 A2977 RMK A01 T02440181  RH  068%=      5-min Rain = 0
KWE1 150931Z 18014KT 24/18 A2977 RMK A01 T02440181  RH  068%=      5-min Rain = 0
KWE1 150932Z 17013KT 24/18 A2977 RMK A01 T02440181  RH  068%=      5-min Rain = 0
KWE1 150933Z 17012KT 24/18 A2977 RMK A01 T02430181  RH  068%=      5-min Rain = 0
KWE1 150934Z 17013KT 24/18 A2977 RMK A01 T02430181  RH  068%=      5-min Rain = 0
KWE1 150935Z 17013KT 24/18 A2977 RMK A01 T02420181  RH  068%=      5-min Rain = 0
KWE1 150936Z 17013KT 24/18 A2977 RMK A01 T02420181  RH  069%=      5-min Rain = 0
KWE1 150937Z 17013KT 24/18 A2977 RMK A01 T02420181  RH  069%=      5-min Rain = 0
KWE1 150938Z 17013KT 24/18 A2976 RMK A01 T02410181  RH  069%=      5-min Rain = 0
KWE1 150939Z 17014KT 24/18 A2977 RMK A01 T02410181  RH  069%=      5-min Rain = 0
KWE1 150940Z 17013KT 24/18 A2976 RMK A01 T02410181  RH  069%=      5-min Rain = 0
KWE1 150941Z 17014KT 24/18 A2976 RMK A01 T02410181  RH  069%=      5-min Rain = 0
KWE1 150942Z 17016KT 24/18 A2976 RMK A01 T02420181  RH  069%=      5-min Rain = 0
KWE1 150943Z 17014KT 24/18 A2976 RMK A01 T02430181  RH  068%=      5-min Rain = 0
KWE1 150944Z 17014KT 24/18 A2976 RMK A01 T02430181  RH  068%=      5-min Rain = 0
KWE1 150945Z 17014KT 24/18 A2976 RMK A01 T02430181  RH  069%=      5-min Rain = 0
KWE1 150946Z 17015KT 24/18 A2976 RMK A01 T02420182  RH  069%=      5-min Rain = 0
KWE1 150947Z 17015KT 24/18 A2976 RMK A01 T02420181  RH  069%=      5-min Rain = 0
KWE1 150948Z 17013KT 24/18 A2976 RMK A01 T02420182  RH  069%=      5-min Rain = 0
KWE1 150949Z 17014KT 24/18 A2976 RMK A01 T02410182  RH  069%=      5-min Rain = 0
KWE1 150950Z 17013KT 24/18 A2976 RMK A01 T02410182  RH  069%=      5-min Rain = 0
KWE1 150951Z 17013KT 24/18 A2976 RMK A01 T02410182  RH  070%=      5-min Rain = 0
KWE1 150952Z 17013KT 24/18 A2976 RMK A01 T02400182  RH  070%=      5-min Rain = 0
KWE1 150953Z 17014KT 24/18 A2976 RMK A01 T02400182  RH  070%=      5-min Rain = 0
KWE1 150954Z 17014KT 24/18 A2976 RMK A01 T02400182  RH  070%=      5-min Rain = 0
KWE1 150955Z 17013KT 24/18 A2976 RMK A01 T02400182  RH  070%=      5-min Rain = 0
KWE1 150956Z 18014KT 24/18 A2976 RMK A01 T02390182  RH  070%=      5-min Rain = 0
KWE1 150957Z 17013KT 24/18 A2976 RMK A01 T02400182  RH  070%=      5-min Rain = 0
KWE1 150958Z 17013KT 24/18 A2976 RMK A01 T02400182  RH  070%=      5-min Rain = 0
KWE1 150959Z 17013KT 24/18 A2976 RMK A01 T02400182  RH  070%=      5-min Rain = 0
KWE1 151000Z 17013KT 24/18 A2976 RMK A01 T02400182  RH  070%=      5-min Rain = 0
KWE1 151001Z 17012KT 24/18 A2976 RMK A01 T02400182  RH  070%=      5-min Rain = 0
KWE1 151002Z 17014KT 24/18 A2976 RMK A01 T02390182  RH  070%=      5-min Rain = 0
KWE1 151003Z 17014KT 24/18 A2976 RMK A01 T02390182  RH  070%=      5-min Rain = 0
KWE1 151004Z 17012KT 24/18 A2976 RMK A01 T02390182  RH  070%=      5-min Rain = 0
KWE1 151005Z 17012KT 24/18 A2976 RMK A01 T02390182  RH  070%=      5-min Rain = 0
KWE1 151006Z 17012KT 24/18 A2976 RMK A01 T02380182  RH  071%=      5-min Rain = 0
KWE1 151007Z 17014KT 24/18 A2976 RMK A01 T02380182  RH  071%=      5-min Rain = 0
KWE1 151008Z 17013KT 24/18 A2976 RMK A01 T02380182  RH  071%=      5-min Rain = 0
KWE1 151009Z 17014KT 24/18 A2976 RMK A01 T02380181  RH  071%=      5-min Rain = 0
KWE1 151010Z 17013KT 24/18 A2976 RMK A01 T02380182  RH  071%=      5-min Rain = 0
KWE1 151011Z 17015KT 24/18 A2976 RMK A01 T02390182  RH  070%=      5-min Rain = 0
KWE1 151012Z 17013KT 24/18 A2976 RMK A01 T02390182  RH  070%=      5-min Rain = 0
KWE1 151013Z 17013KT 24/18 A2976 RMK A01 T02400182  RH  070%=      5-min Rain = 0
KWE1 151014Z 17014KT 24/18 A2976 RMK A01 T02390183  RH  071%=      5-min Rain = 0
KWE1 151015Z 17013KT 24/18 A2976 RMK A01 T02380182  RH  071%=      5-min Rain = 0
KWE1 151016Z 17014KT 24/18 A2976 RMK A01 T02380183  RH  071%=      5-min Rain = 0
KWE1 151017Z 17013KT 24/18 A2976 RMK A01 T02380183  RH  071%=      5-min Rain = 0
KWE1 151018Z 17012KT 24/18 A2976 RMK A01 T02380183  RH  071%=      5-min Rain = 0
KWE1 151019Z 17013KT 24/18 A2976 RMK A01 T02370183  RH  071%=      5-min Rain = 0
KWE1 151020Z 18014KT 24/18 A2976 RMK A01 T02370183  RH  072%=      5-min Rain = 0
KWE1 151021Z 17014KT 24/18 A2976 RMK A01 T02370183  RH  072%=      5-min Rain = 0
KWE1 151022Z 17013KT 24/18 A2976 RMK A01 T02370183  RH  071%=      5-min Rain = 0
KWE1 151023Z 17013KT 24/18 A2976 RMK A01 T02370183  RH  072%=      5-min Rain = 0
KWE1 151024Z 17012KT 24/18 A2976 RMK A01 T02370183  RH  072%=      5-min Rain = 0
KWE1 151025Z 17013KT 24/18 A2976 RMK A01 T02370183  RH  072%=      5-min Rain = 0
KWE1 151026Z 17013KT 24/18 A2976 RMK A01 T02360183  RH  072%=      5-min Rain = 0
KWE1 151027Z 17013KT 24/18 A2976 RMK A01 T02360183  RH  072%=      5-min Rain = 0
KWE1 151028Z 17013KT 24/18 A2976 RMK A01 T02360183  RH  072%=      5-min Rain = 0
KWE1 151029Z 17013KT 24/18 A2976 RMK A01 T02360183  RH  072%=      5-min Rain = 0
KWE1 151030Z 17013KT 24/18 A2976 RMK A01 T02360184  RH  072%=      5-min Rain = 0
KWE1 151031Z 17014KT 24/18 A2976 RMK A01 T02360183  RH  072%=      5-min Rain = 0
KWE1 151032Z 17014KT 24/18 A2976 RMK A01 T02370183  RH  072%=      5-min Rain = 0
KWE1 151033Z 17013KT 24/18 A2976 RMK A01 T02370183  RH  072%=      5-min Rain = 0
KWE1 151034Z 17012KT 24/18 A2976 RMK A01 T02370184  RH  072%=      5-min Rain = 0
KWE1 151035Z 17014KT 24/18 A2976 RMK A01 T02360183  RH  072%=      5-min Rain = 0
KWE1 151036Z 17013KT 24/18 A2976 RMK A01 T02360183  RH  072%=      5-min Rain = 0
KWE1 151037Z 17013KT 24/18 A2976 RMK A01 T02370183  RH  072%=      5-min Rain = 0
KWE1 151038Z 17013KT 24/18 A2976 RMK A01 T02370184  RH  072%=      5-min Rain = 0
KWE1 151039Z 17012KT 24/18 A2976 RMK A01 T02360183  RH  072%=      5-min Rain = 0
KWE1 151040Z 17012KT 24/18 A2976 RMK A01 T02360183  RH  072%=      5-min Rain = 0
KWE1 151041Z 17012KT 24/18 A2976 RMK A01 T02350184  RH  073%=      5-min Rain = 0
KWE1 151042Z 17012KT 24/18 A2976 RMK A01 T02350183  RH  073%=      5-min Rain = 0
KWE1 151043Z 16013KT 23/18 A2976 RMK A01 T02340184  RH  073%=      5-min Rain = 0
KWE1 151044Z 17013KT 23/18 A2976 RMK A01 T02340184  RH  073%=      5-min Rain = 0
KWE1 151045Z 17012KT 23/18 A2976 RMK A01 T02340184  RH  073%=      5-min Rain = 0
KWE1 151046Z 17013KT 24/18 A2976 RMK A01 T02350184  RH  073%=      5-min Rain = 0
KWE1 151047Z 16013KT 23/18 A2976 RMK A01 T02340184  RH  073%=      5-min Rain = 0
KWE1 151048Z 17013KT 24/18 A2976 RMK A01 T02350184  RH  073%=      5-min Rain = 0
KWE1 151049Z 17012KT 24/18 A2976 RMK A01 T02350184  RH  073%=      5-min Rain = 0
KWE1 151050Z 16009KT 23/18 A2976 RMK A01 T02340184  RH  073%=      5-min Rain = 0
KWE1 151051Z 16010KT 23/18 A2976 RMK A01 T02340184  RH  074%=      5-min Rain = 0
KWE1 151052Z 16010KT 23/18 A2977 RMK A01 T02330184  RH  074%=      5-min Rain = 0
KWE1 151053Z 17011KT 23/19 A2977 RMK A01 T02330185  RH  074%=      5-min Rain = 0
KWE1 151054Z 17012KT 23/18 A2977 RMK A01 T02330184  RH  074%=      5-min Rain = 0
KWE1 151055Z 17010KT 23/18 A2977 RMK A01 T02330184  RH  074%=      5-min Rain = 0
KWE1 151056Z 17011KT 23/18 A2977 RMK A01 T02340184  RH  074%=      5-min Rain = 0
KWE1 151057Z 17010KT 23/18 A2977 RMK A01 T02340184  RH  074%=      5-min Rain = 0
KWE1 151058Z 17009KT 23/19 A2977 RMK A01 T02330185  RH  074%=      5-min Rain = 0
KWE1 151059Z 17010KT 23/18 A2977 RMK A01 T02330184  RH  074%=      5-min Rain = 0
KWE1 151100Z 17011KT 23/19 A2977 RMK A01 T02320185  RH  075%=      5-min Rain = 0
KWE1 151101Z 17010KT 23/19 A2977 RMK A01 T02320185  RH  075%=      5-min Rain = 0
KWE1 151102Z 16011KT 23/19 A2977 RMK A01 T02320185  RH  075%=      5-min Rain = 0
KWE1 151103Z 17011KT 23/19 A2977 RMK A01 T02320185  RH  075%=      5-min Rain = 0
KWE1 151104Z 16008KT 23/19 A2977 RMK A01 T02320186  RH  075%=      5-min Rain = 0
KWE1 151105Z 16009KT 23/19 A2977 RMK A01 T02310186  RH  075%=      5-min Rain = 0
KWE1 151106Z 16009KT 23/19 A2977 RMK A01 T02310185  RH  076%=      5-min Rain = 0
KWE1 151107Z 16011KT 23/19 A2977 RMK A01 T02300186  RH  076%=      5-min Rain = 0
KWE1 151108Z 16010KT 23/19 A2977 RMK A01 T02310186  RH  076%=      5-min Rain = 0
KWE1 151109Z 16009KT 23/19 A2977 RMK A01 T02300186  RH  076%=      5-min Rain = 0
KWE1 151110Z 17009KT 23/19 A2977 RMK A01 T02300186  RH  076%=      5-min Rain = 0
KWE1 151111Z 17010KT 23/19 A2977 RMK A01 T02300186  RH  076%=      5-min Rain = 0
KWE1 151112Z 16012KT 23/19 A2977 RMK A01 T02290186  RH  076%=      5-min Rain = 0
KWE1 151113Z 17011KT 23/19 A2977 RMK A01 T02300186  RH  076%=      5-min Rain = 0
KWE1 151114Z 17011KT 23/19 A2977 RMK A01 T02310186  RH  076%=      5-min Rain = 0
KWE1 151115Z 16011KT 23/19 A2977 RMK A01 T02310186  RH  076%=      5-min Rain = 0
KWE1 151116Z 17011KT 23/19 A2977 RMK A01 T02310186  RH  076%=      5-min Rain = 0
KWE1 151117Z 17012KT 23/19 A2977 RMK A01 T02310187  RH  076%=      5-min Rain = 0
KWE1 151118Z 17013KT 23/19 A2977 RMK A01 T02310186  RH  076%=      5-min Rain = 0
KWE1 151119Z 17011KT 23/19 A2977 RMK A01 T02310187  RH  076%=      5-min Rain = 0
KWE1 151120Z 17011KT 23/19 A2978 RMK A01 T02310187  RH  076%=      5-min Rain = 0
KWE1 151121Z 17011KT 23/19 A2977 RMK A01 T02310187  RH  076%=      5-min Rain = 0
KWE1 151122Z 17011KT 23/19 A2977 RMK A01 T02310187  RH  076%=      5-min Rain = 0
KWE1 151123Z 17011KT 23/19 A2977 RMK A01 T02300187  RH  076%=      5-min Rain = 0
KWE1 151124Z 17011KT 23/19 A2977 RMK A01 T02300187  RH  077%=      5-min Rain = 0
KWE1 151125Z 17011KT 23/19 A2977 RMK A01 T02300187  RH  077%=      5-min Rain = 0
KWE1 151126Z 17011KT 23/19 A2977 RMK A01 T02300187  RH  077%=      5-min Rain = 0
KWE1 151127Z 17013KT 23/19 A2977 RMK A01 T02300187  RH  077%=      5-min Rain = 0
KWE1 151128Z 17014KT 23/19 A2977 RMK A01 T02310188  RH  077%=      5-min Rain = 0
KWE1 151129Z 17012KT 23/19 A2977 RMK A01 T02310187  RH  076%=      5-min Rain = 0
KWE1 151130Z 17012KT 23/19 A2977 RMK A01 T02310187  RH  076%=      5-min Rain = 0
KWE1 151131Z 17012KT 23/19 A2977 RMK A01 T02310188  RH  077%=      5-min Rain = 0
KWE1 151132Z 17013KT 23/19 A2977 RMK A01 T02310188  RH  077%=      5-min Rain = 0
KWE1 151133Z 17013KT 23/19 A2977 RMK A01 T02300188  RH  077%=      5-min Rain = 0
KWE1 151134Z 17012KT 23/19 A2977 RMK A01 T02300187  RH  077%=      5-min Rain = 0
KWE1 151135Z 17012KT 23/19 A2977 RMK A01 T02300187  RH  077%=      5-min Rain = 0
KWE1 151136Z 18012KT 23/19 A2977 RMK A01 T02290187  RH  077%=      5-min Rain = 0
KWE1 151137Z 18014KT 23/19 A2977 RMK A01 T02290187  RH  077%=      5-min Rain = 0
KWE1 151138Z 17014KT 23/19 A2977 RMK A01 T02300187  RH  077%=      5-min Rain = 0
KWE1 151139Z 18013KT 23/19 A2977 RMK A01 T02310188  RH  077%=      5-min Rain = 0
KWE1 151140Z 17013KT 23/19 A2977 RMK A01 T02310188  RH  076%=      5-min Rain = 0
KWE1 151141Z 18013KT 23/19 A2978 RMK A01 T02310188  RH  076%=      5-min Rain = 0
KWE1 151142Z 18014G19KT 23/19 A2978 RMK A01 T02310188  RH  076%=      5-min Rain = 0
KWE1 151143Z 18012KT 23/19 A2978 RMK A01 T02310188  RH  076%=      5-min Rain = 0
KWE1 151144Z 18015KT 23/19 A2978 RMK A01 T02320188  RH  076%=      5-min Rain = 0
KWE1 151145Z 18013KT 23/19 A2978 RMK A01 T02320188  RH  076%=      5-min Rain = 0
KWE1 151146Z 17014KT 23/19 A2977 RMK A01 T02320188  RH  076%=      5-min Rain = 0
KWE1 151147Z 17012KT 23/19 A2978 RMK A01 T02320188  RH  076%=      5-min Rain = 0
KWE1 151148Z 18013KT 23/19 A2978 RMK A01 T02320188  RH  076%=      5-min Rain = 0
KWE1 151149Z 18013KT 23/19 A2978 RMK A01 T02320188  RH  077%=      5-min Rain = 0
KWE1 151150Z 18014KT 23/19 A2978 RMK A01 T02320189  RH  077%=      5-min Rain = 0
KWE1 151151Z 18013KT 23/19 A2978 RMK A01 T02320188  RH  076%=      5-min Rain = 0
KWE1 151152Z 18013KT 23/19 A2978 RMK A01 T02320188  RH  076%=      5-min Rain = 0
KWE1 151153Z 18015KT 23/19 A2978 RMK A01 T02320188  RH  076%=      5-min Rain = 0
KWE1 151154Z 18012KT 23/19 A2978 RMK A01 T02330189  RH  076%=      5-min Rain = 0
KWE1 151155Z 18013KT 23/19 A2978 RMK A01 T02330189  RH  076%=      5-min Rain = 0
KWE1 151156Z 18011KT 23/19 A2978 RMK A01 T02330189  RH  076%=      5-min Rain = 0
KWE1 151157Z 18012KT 23/19 A2978 RMK A01 T02330189  RH  077%=      5-min Rain = 0
KWE1 151158Z 18012KT 23/19 A2979 RMK A01 T02330189  RH  077%=      5-min Rain = 0
KWE1 151159Z 17013KT 23/19 A2979 RMK A01 T02330189  RH  077%=      5-min Rain = 0
KWE1 151200Z 18013KT 23/19 A2979 RMK A01 T02330189  RH  076%=      5-min Rain = 0
KWE1 151201Z 17015KT 23/19 A2979 RMK A01 T02340189  RH  076%=      5-min Rain = 0
KWE1 151202Z 18014KT 23/19 A2979 RMK A01 T02340189  RH  076%=      5-min Rain = 0
KWE1 151203Z 18011KT 23/19 A2979 RMK A01 T02340189  RH  076%=      5-min Rain = 0
KWE1 151204Z 18012KT 24/19 A2979 RMK A01 T02350190  RH  076%=      5-min Rain = 0
KWE1 151205Z 18013KT 23/19 A2979 RMK A01 T02340190  RH  076%=      5-min Rain = 0
KWE1 151206Z 18014KT 23/19 A2979 RMK A01 T02340190  RH  076%=      5-min Rain = 0
KWE1 151207Z 18012KT 24/19 A2979 RMK A01 T02350190  RH  076%=      5-min Rain = 0
KWE1 151208Z 18012KT 24/19 A2979 RMK A01 T02350191  RH  076%=      5-min Rain = 0
KWE1 151209Z 18012KT 24/19 A2979 RMK A01 T02350191  RH  076%=      5-min Rain = 0
KWE1 151210Z 18014KT 24/19 A2979 RMK A01 T02350191  RH  076%=      5-min Rain = 0
KWE1 151211Z 18014KT 24/19 A2979 RMK A01 T02350191  RH  076%=      5-min Rain = 0
KWE1 151212Z 18014KT 24/19 A2979 RMK A01 T02360191  RH  076%=      5-min Rain = 0
KWE1 151213Z 18013KT 24/19 A2979 RMK A01 T02360191  RH  076%=      5-min Rain = 0
KWE1 151214Z 18013KT 24/19 A2979 RMK A01 T02360191  RH  076%=      5-min Rain = 0
KWE1 151215Z 17013KT 24/19 A2979 RMK A01 T02360191  RH  076%=      5-min Rain = 0
KWE1 151216Z 18014KT 24/19 A2979 RMK A01 T02370192  RH  076%=      5-min Rain = 0
KWE1 151217Z 18014KT 24/19 A2979 RMK A01 T02370192  RH  076%=      5-min Rain = 0
KWE1 151218Z 18012KT 24/19 A2979 RMK A01 T02380192  RH  076%=      5-min Rain = 0
KWE1 151219Z 18012KT 24/19 A2979 RMK A01 T02380192  RH  075%=      5-min Rain = 0
KWE1 151220Z 18014KT 24/19 A2979 RMK A01 T02380192  RH  075%=      5-min Rain = 0
KWE1 151221Z 18014KT 24/19 A2979 RMK A01 T02380192  RH  075%=      5-min Rain = 0
KWE1 151222Z 18014KT 24/19 A2979 RMK A01 T02380192  RH  075%=      5-min Rain = 0
KWE1 151223Z 18014KT 24/19 A2979 RMK A01 T02380192  RH  075%=      5-min Rain = 0
KWE1 151224Z 18012KT 24/19 A2979 RMK A01 T02390193  RH  075%=      5-min Rain = 0
KWE1 151225Z 18012KT 24/19 A2979 RMK A01 T02390193  RH  076%=      5-min Rain = 0
KWE1 151226Z 17014KT 24/19 A2979 RMK A01 T02390193  RH  076%=      5-min Rain = 0
KWE1 151227Z 18013KT 24/19 A298 RMK A01 T02390193  RH  076%=      5-min Rain = 0
KWE1 151228Z 18014KT 24/19 A298 RMK A01 T02390193  RH  076%=      5-min Rain = 0
KWE1 151229Z 18013KT 24/19 A298 RMK A01 T02390193  RH  076%=      5-min Rain = 0
KWE1 151230Z 18013KT 24/19 A298 RMK A01 T02380193  RH  076%=      5-min Rain = 0
KWE1 151231Z 18014KT 24/19 A2979 RMK A01 T02390193  RH  076%=      5-min Rain = 0
KWE1 151232Z 18014KT 24/19 A2979 RMK A01 T02390193  RH  075%=      5-min Rain = 0
KWE1 151233Z 18014KT 24/19 A2979 RMK A01 T02390194  RH  076%=      5-min Rain = 0
KWE1 151234Z 18013KT 24/19 A2979 RMK A01 T02390194  RH  076%=      5-min Rain = 0
KWE1 151235Z 18015KT 24/19 A2979 RMK A01 T02390194  RH  076%=      5-min Rain = 0
KWE1 151236Z 18015KT 24/19 A2979 RMK A01 T02400194  RH  075%=      5-min Rain = 0
KWE1 151237Z 18013KT 24/19 A2979 RMK A01 T02400194  RH  075%=      5-min Rain = 0
KWE1 151238Z 18014KT 24/19 A2979 RMK A01 T02400194  RH  075%=      5-min Rain = 0
KWE1 151239Z 18015G20KT 24/20 A2979 RMK A01 T02410195  RH  075%=      5-min Rain = 0
KWE1 151240Z 18015KT 24/19 A2979 RMK A01 T02410194  RH  075%=      5-min Rain = 0
KWE1 151241Z 18014KT 24/19 A2979 RMK A01 T02410194  RH  075%=      5-min Rain = 0
KWE1 151242Z 18014KT 24/20 A2979 RMK A01 T02410195  RH  075%=      5-min Rain = 0
KWE1 151243Z 18014KT 24/20 A2979 RMK A01 T02420195  RH  075%=      5-min Rain = 0
KWE1 151244Z 18015KT 24/20 A2979 RMK A01 T02420195  RH  075%=      5-min Rain = 0
KWE1 151245Z 18014KT 24/20 A2979 RMK A01 T02420195  RH  075%=      5-min Rain = 0
KWE1 151246Z 18015KT 24/20 A2979 RMK A01 T02420195  RH  075%=      5-min Rain = 0
KWE1 151247Z 18015KT 24/20 A2979 RMK A01 T02430196  RH  075%=      5-min Rain = 0
KWE1 151248Z 18015KT 24/20 A2979 RMK A01 T02430196  RH  075%=      5-min Rain = 0
KWE1 151249Z 18015KT 24/20 A2979 RMK A01 T02430196  RH  075%=      5-min Rain = 0
KWE1 151250Z 18014G19KT 24/20 A2979 RMK A01 T02440196  RH  075%=      5-min Rain = 0
KWE1 151251Z 18015KT 24/20 A2978 RMK A01 T02440196  RH  075%=      5-min Rain = 0
KWE1 151252Z 18015KT 24/20 A2979 RMK A01 T02440196  RH  075%=      5-min Rain = 0
KWE1 151253Z 18017KT 25/20 A2979 RMK A01 T02450197  RH  074%=      5-min Rain = 0
KWE1 151254Z 18015KT 25/20 A2979 RMK A01 T02460197  RH  074%=      5-min Rain = 0
KWE1 151255Z 18015KT 25/20 A2979 RMK A01 T02460197  RH  074%=      5-min Rain = 0
KWE1 151256Z 18016KT 25/20 A2979 RMK A01 T02460197  RH  074%=      5-min Rain = 0
KWE1 151257Z 18014KT 25/20 A2979 RMK A01 T02470197  RH  074%=      5-min Rain = 0
KWE1 151258Z 18014KT 25/20 A2979 RMK A01 T02470198  RH  074%=      5-min Rain = 0
KWE1 151259Z 18016G21KT 25/20 A2979 RMK A01 T02470198  RH  074%=      5-min Rain = 0
KWE1 151300Z 18019G24KT 25/20 A2979 RMK A01 T02480197  RH  073%=      5-min Rain = 0
KWE1 151301Z 18018KT 25/20 A2979 RMK A01 T02480197  RH  073%=      5-min Rain = 0
KWE1 151302Z 18016KT 25/20 A2979 RMK A01 T02480197  RH  073%=      5-min Rain = 0
KWE1 151303Z 18015KT 25/20 A2979 RMK A01 T02490198  RH  074%=      5-min Rain = 0
KWE1 151304Z 19017KT 25/20 A2979 RMK A01 T02490198  RH  073%=      5-min Rain = 0
KWE1 151305Z 18016KT 25/20 A2979 RMK A01 T02490199  RH  073%=      5-min Rain = 0
KWE1 151306Z 19017KT 25/20 A2979 RMK A01 T02500198  RH  073%=      5-min Rain = 0
KWE1 151307Z 19018KT 25/20 A298 RMK A01 T02500198  RH  073%=      5-min Rain = 0
KWE1 151308Z 19020KT 25/20 A2979 RMK A01 T02500198  RH  073%=      5-min Rain = 0
KWE1 151309Z 18017G22KT 25/20 A298 RMK A01 T02510198  RH  073%=      5-min Rain = 0
KWE1 151310Z 19015KT 25/20 A298 RMK A01 T02510199  RH  073%=      5-min Rain = 0
KWE1 151311Z 19016KT 25/20 A298 RMK A01 T02510199  RH  073%=      5-min Rain = 0
KWE1 151312Z 19017KT 25/20 A2979 RMK A01 T02520199  RH  072%=      5-min Rain = 0
KWE1 151313Z 19015KT 25/20 A298 RMK A01 T02520199  RH  072%=      5-min Rain = 0
KWE1 151314Z 19018KT 25/20 A2979 RMK A01 T02530200  RH  073%=      5-min Rain = 0
KWE1 151315Z 19018KT 25/20 A2979 RMK A01 T02530199  RH  072%=      5-min Rain = 0
KWE1 151316Z 19019KT 25/20 A2979 RMK A01 T02540200  RH  072%=      5-min Rain = 0
KWE1 151317Z 19017KT 25/20 A2979 RMK A01 T02530200  RH  072%=      5-min Rain = 0
KWE1 151318Z 18017KT 25/20 A2979 RMK A01 T02540200  RH  072%=      5-min Rain = 0
KWE1 151319Z 19018KT 26/20 A2979 RMK A01 T02550201  RH  072%=      5-min Rain = 0
KWE1 151320Z 19019KT 26/20 A2979 RMK A01 T02550200  RH  072%=      5-min Rain = 0
KWE1 151321Z 19018KT 26/20 A2979 RMK A01 T02550200  RH  072%=      5-min Rain = 0
KWE1 151322Z 19020KT 26/20 A2979 RMK A01 T02550200  RH  072%=      5-min Rain = 0
KWE1 151323Z 18020KT 26/20 A2979 RMK A01 T02550200  RH  071%=      5-min Rain = 0
KWE1 151324Z 19018KT 26/20 A2979 RMK A01 T02550200  RH  072%=      5-min Rain = 0
KWE1 151325Z 19019KT 26/20 A2979 RMK A01 T02560201  RH  072%=      5-min Rain = 0
KWE1 151326Z 19018KT 26/20 A2979 RMK A01 T02560200  RH  071%=      5-min Rain = 0
KWE1 151327Z 19019KT 26/20 A2979 RMK A01 T02570201  RH  071%=      5-min Rain = 0
KWE1 151328Z 19021KT 26/20 A2979 RMK A01 T02570201  RH  071%=      5-min Rain = 0
KWE1 151329Z 19018KT 26/20 A2979 RMK A01 T02560200  RH  071%=      5-min Rain = 0
KWE1 151330Z 19019KT 26/20 A2979 RMK A01 T02570201  RH  071%=      5-min Rain = 0
KWE1 151331Z 19019KT 26/20 A2979 RMK A01 T02570201  RH  071%=      5-min Rain = 0
KWE1 151332Z 19017KT 26/20 A2979 RMK A01 T02580202  RH  071%=      5-min Rain = 0
KWE1 151333Z 19019KT 26/20 A2979 RMK A01 T02580202  RH  071%=      5-min Rain = 0
KWE1 151334Z 19019KT 26/20 A2979 RMK A01 T02580201  RH  071%=      5-min Rain = 0
KWE1 151335Z 19019G24KT 26/20 A2979 RMK A01 T02580202  RH  071%=      5-min Rain = 0
KWE1 151336Z 18022KT 26/20 A2979 RMK A01 T02590201  RH  071%=      5-min Rain = 0
KWE1 151337Z 19018KT 26/20 A2979 RMK A01 T02580201  RH  071%=      5-min Rain = 0
KWE1 151338Z 19021KT 26/20 A2979 RMK A01 T02590201  RH  071%=      5-min Rain = 0
KWE1 151339Z 18019KT 26/20 A2979 RMK A01 T02590201  RH  071%=      5-min Rain = 0
KWE1 151340Z 18019G24KT 26/20 A2979 RMK A01 T02590201  RH  070%=      5-min Rain = 0
KWE1 151341Z 19016KT 26/20 A2979 RMK A01 T02590202  RH  070%=      5-min Rain = 0
KWE1 151342Z 18018KT 26/20 A2979 RMK A01 T02600203  RH  071%=      5-min Rain = 0
KWE1 151343Z 19019KT 26/20 A2979 RMK A01 T02610202  RH  070%=      5-min Rain = 0
KWE1 151344Z 19016KT 26/20 A2979 RMK A01 T02610203  RH  070%=      5-min Rain = 0
KWE1 151345Z 18016KT 26/20 A2979 RMK A01 T02620204  RH  070%=      5-min Rain = 0
KWE1 151346Z 19017KT 26/20 A2979 RMK A01 T02630204  RH  070%=      5-min Rain = 0
KWE1 151347Z 19017G22KT 26/20 A2979 RMK A01 T02630203  RH  070%=      5-min Rain = 0
KWE1 151348Z 19018KT 26/20 A2979 RMK A01 T02630203  RH  070%=      5-min Rain = 0
KWE1 151349Z 19018KT 26/20 A2979 RMK A01 T02630203  RH  069%=      5-min Rain = 0
KWE1 151350Z 18019KT 26/20 A2979 RMK A01 T02640203  RH  069%=      5-min Rain = 0
KWE1 151351Z 19020KT 26/20 A2979 RMK A01 T02640203  RH  069%=      5-min Rain = 0
KWE1 151352Z 19021KT 26/20 A2979 RMK A01 T02640202  RH  068%=      5-min Rain = 0
KWE1 151353Z 19020KT 26/20 A2979 RMK A01 T02640202  RH  068%=      5-min Rain = 0
KWE1 151354Z 18018KT 26/20 A2979 RMK A01 T02640203  RH  069%=      5-min Rain = 0
KWE1 151355Z 19020KT 27/20 A2979 RMK A01 T02650203  RH  069%=      5-min Rain = 0
KWE1 151356Z 19019KT 27/20 A2979 RMK A01 T02660203  RH  068%=      5-min Rain = 0
KWE1 151357Z 19019KT 27/20 A2979 RMK A01 T02670203  RH  068%=      5-min Rain = 0
KWE1 151358Z 19018KT 27/20 A2979 RMK A01 T02670203  RH  068%=      5-min Rain = 0
KWE1 151359Z 19017KT 27/20 A2979 RMK A01 T02670204  RH  068%=      5-min Rain = 0
KWE1 151400Z 19015KT 27/20 A2979 RMK A01 T02680204  RH  068%=      5-min Rain = 0
KWE1 151401Z 19018KT 27/20 A2979 RMK A01 T02680204  RH  068%=      5-min Rain = 0
KWE1 151402Z 19020KT 27/20 A2979 RMK A01 T02690203  RH  067%=      5-min Rain = 0
KWE1 151403Z 18019KT 27/20 A2979 RMK A01 T02680202  RH  067%=      5-min Rain = 0
KWE1 151404Z 18017KT 27/20 A2979 RMK A01 T02690204  RH  068%=      5-min Rain = 0
KWE1 151405Z 19018KT 27/21 A2979 RMK A01 T02700205  RH  067%=      5-min Rain = 0
KWE1 151406Z 19020KT 27/20 A2979 RMK A01 T02710203  RH  066%=      5-min Rain = 0
KWE1 151407Z 19022G28KT 27/20 A2979 RMK A01 T02700203  RH  067%=      5-min Rain = 0
KWE1 151408Z 20024KT 27/20 A2978 RMK A01 T02700201  RH  066%=      5-min Rain = 0
KWE1 151409Z 19021KT 27/20 A2979 RMK A01 T02690201  RH  066%=      5-min Rain = 0
KWE1 151410Z 18019KT 27/20 A2979 RMK A01 T02680203  RH  067%=      5-min Rain = 0
KWE1 151411Z 19016KT 27/20 A2979 RMK A01 T02690204  RH  068%=      5-min Rain = 0
KWE1 151412Z 19018KT 27/20 A2979 RMK A01 T02710203  RH  067%=      5-min Rain = 0
KWE1 151413Z 19019KT 27/20 A2979 RMK A01 T02710203  RH  066%=      5-min Rain = 0
KWE1 151414Z 19019KT 27/20 A2979 RMK A01 T02700204  RH  067%=      5-min Rain = 0
KWE1 151415Z 19019KT 27/20 A2979 RMK A01 T02710204  RH  067%=      5-min Rain = 0
KWE1 151416Z 20017KT 27/20 A2979 RMK A01 T02720203  RH  066%=      5-min Rain = 0
KWE1 151417Z 20017G22KT 27/20 A2979 RMK A01 T02720204  RH  066%=      5-min Rain = 0
KWE1 151418Z 19021KT 27/20 A2979 RMK A01 T02710201  RH  066%=      5-min Rain = 0
KWE1 151419Z 19019G24KT 27/20 A2979 RMK A01 T02720202  RH  065%=      5-min Rain = 0
KWE1 151420Z 18020KT 27/20 A2979 RMK A01 T02720202  RH  065%=      5-min Rain = 0
KWE1 151421Z 19018KT 27/20 A2979 RMK A01 T02730202  RH  065%=      5-min Rain = 0
KWE1 151422Z 19020KT 27/20 A2979 RMK A01 T02730203  RH  066%=      5-min Rain = 0
KWE1 151423Z 20021KT 27/20 A2979 RMK A01 T02740200  RH  064%=      5-min Rain = 0
KWE1 151424Z 19018KT 27/20 A2979 RMK A01 T02730201  RH  065%=      5-min Rain = 0
KWE1 151425Z 19018KT 27/20 A2979 RMK A01 T02720202  RH  065%=      5-min Rain = 0
KWE1 151426Z 18020KT 27/20 A2979 RMK A01 T02740203  RH  065%=      5-min Rain = 0
KWE1 151427Z 18020KT 27/20 A2979 RMK A01 T02740202  RH  065%=      5-min Rain = 0
KWE1 151428Z 18020KT 27/20 A2979 RMK A01 T02740202  RH  065%=      5-min Rain = 0
KWE1 151429Z 18020KT 28/20 A2979 RMK A01 T02750202  RH  064%=      5-min Rain = 0
KWE1 151430Z 19017KT 28/20 A2979 RMK A01 T02760202  RH  064%=      5-min Rain = 0
KWE1 151431Z 19019KT 28/20 A2979 RMK A01 T02770203  RH  064%=      5-min Rain = 0
KWE1 151432Z 18022KT 28/20 A2979 RMK A01 T02770202  RH  063%=      5-min Rain = 0
KWE1 151433Z 19022KT 28/20 A2979 RMK A01 T02780200  RH  063%=      5-min Rain = 0
KWE1 151434Z 19018KT 28/20 A2979 RMK A01 T02770201  RH  063%=      5-min Rain = 0
KWE1 151435Z 19019KT 28/20 A2979 RMK A01 T02760202  RH  064%=      5-min Rain = 0
KWE1 151436Z 19020KT 28/20 A2979 RMK A01 T02770202  RH  064%=      5-min Rain = 0
KWE1 151437Z 18020KT 28/20 A2979 RMK A01 T02780203  RH  064%=      5-min Rain = 0
KWE1 151438Z 19020KT 28/20 A2979 RMK A01 T02780202  RH  063%=      5-min Rain = 0
KWE1 151439Z 19021KT 28/20 A2979 RMK A01 T02780202  RH  063%=      5-min Rain = 0
KWE1 151440Z 19022KT 28/20 A2979 RMK A01 T02770200  RH  063%=      5-min Rain = 0
KWE1 151441Z 19021KT 28/20 A2979 RMK A01 T02780201  RH  063%=      5-min Rain = 0
KWE1 151442Z 19020KT 28/20 A2979 RMK A01 T02780201  RH  063%=      5-min Rain = 0
KWE1 151443Z 19020KT 28/20 A2979 RMK A01 T02790201  RH  063%=      5-min Rain = 0
KWE1 151444Z 19020KT 28/20 A2979 RMK A01 T02800201  RH  062%=      5-min Rain = 0
KWE1 151445Z 19018KT 28/20 A2979 RMK A01 T02800201  RH  062%=      5-min Rain = 0
KWE1 151446Z 19017KT 28/20 A2979 RMK A01 T02790202  RH  063%=      5-min Rain = 0
KWE1 151447Z 20014KT 28/20 A2979 RMK A01 T02790202  RH  063%=      5-min Rain = 0
KWE1 151448Z 20016KT 28/20 A2979 RMK A01 T02800204  RH  063%=      5-min Rain = 0
KWE1 151449Z 19018KT 28/20 A2979 RMK A01 T02810203  RH  062%=      5-min Rain = 0
KWE1 151450Z 19021KT 28/20 A2979 RMK A01 T02820202  RH  062%=      5-min Rain = 0
KWE1 151451Z 19020KT 28/20 A2979 RMK A01 T02820201  RH  062%=      5-min Rain = 0
KWE1 151452Z 19019KT 28/20 A2979 RMK A01 T02820202  RH  062%=      5-min Rain = 0
KWE1 151453Z 19019G24KT 28/20 A2979 RMK A01 T02820202  RH  062%=      5-min Rain = 0
KWE1 151454Z 19020KT 28/20 A2979 RMK A01 T02830201  RH  061%=      5-min Rain = 0
KWE1 151455Z 20016KT 28/20 A2979 RMK A01 T02830201  RH  061%=      5-min Rain = 0
KWE1 151456Z 19018KT 28/20 A2979 RMK A01 T02820202  RH  062%=      5-min Rain = 0
KWE1 151457Z 19016KT 28/20 A2979 RMK A01 T02820201  RH  062%=      5-min Rain = 0
KWE1 151458Z 19017KT 28/20 A2979 RMK A01 T02820203  RH  062%=      5-min Rain = 0
KWE1 151459Z 19019G25KT 29/20 A2979 RMK A01 T02850203  RH  061%=      5-min Rain = 0
KWE1 151500Z 20017G22KT 29/20 A2979 RMK A01 T02860201  RH  060%=      5-min Rain = 0
KWE1 151501Z 20015KT 29/20 A2979 RMK A01 T02860203  RH  061%=      5-min Rain = 0
KWE1 151502Z 20016KT 29/20 A2979 RMK A01 T02860203  RH  061%=      5-min Rain = 0
KWE1 151503Z 20017KT 29/20 A2979 RMK A01 T02860201  RH  060%=      5-min Rain = 0
KWE1 151504Z 20016KT 29/20 A2979 RMK A01 T02850201  RH  060%=      5-min Rain = 0
KWE1 151505Z 20017KT 29/20 A2979 RMK A01 T02850199  RH  060%=      5-min Rain = 0
KWE1 151506Z 20020KT 28/20 A2979 RMK A01 T02840198  RH  059%=      5-min Rain = 0
KWE1 151507Z 20017KT 29/20 A2979 RMK A01 T02850198  RH  059%=      5-min Rain = 0
KWE1 151508Z 21014KT 29/20 A2979 RMK A01 T02850199  RH  060%=      5-min Rain = 0
KWE1 151509Z 19018KT 29/20 A2979 RMK A01 T02870202  RH  060%=      5-min Rain = 0
KWE1 151510Z 19020G25KT 29/20 A2979 RMK A01 T02900200  RH  058%=      5-min Rain = 0
KWE1 151511Z 19022KT 29/20 A2979 RMK A01 T02920200  RH  058%=      5-min Rain = 0
KWE1 151512Z 19019G24KT 29/20 A2979 RMK A01 T02930200  RH  057%=      5-min Rain = 0
KWE1 151513Z 20019KT 29/20 A2979 RMK A01 T02920199  RH  057%=      5-min Rain = 0
KWE1 151514Z 20019KT 29/20 A2979 RMK A01 T02910198  RH  058%=      5-min Rain = 0
KWE1 151515Z 19019KT 29/20 A2979 RMK A01 T02890199  RH  058%=      5-min Rain = 0
KWE1 151516Z 19021KT 29/20 A2978 RMK A01 T02900200  RH  058%=      5-min Rain = 0
KWE1 151517Z 19018KT 29/20 A2978 RMK A01 T02910200  RH  058%=      5-min Rain = 0
KWE1 151518Z 20020KT 29/20 A2978 RMK A01 T02930202  RH  058%=      5-min Rain = 0
KWE1 151519Z 20020KT 29/20 A2978 RMK A01 T02940199  RH  057%=      5-min Rain = 0
KWE1 151520Z 20021G26KT 29/20 A2978 RMK A01 T02930198  RH  057%=      5-min Rain = 0
KWE1 151521Z 20019KT 29/20 A2978 RMK A01 T02920197  RH  056%=      5-min Rain = 0
KWE1 151522Z 21020KT 29/20 A2978 RMK A01 T02920199  RH  057%=      5-min Rain = 0
KWE1 151523Z 21018KT 29/20 A2978 RMK A01 T02920198  RH  057%=      5-min Rain = 0
KWE1 151524Z 19019G24KT 29/20 A2978 RMK A01 T02920199  RH  057%=      5-min Rain = 0
KWE1 151525Z 20017KT 29/20 A2978 RMK A01 T02940198  RH  056%=      5-min Rain = 0
KWE1 151526Z 20018KT 30/20 A2978 RMK A01 T02950198  RH  056%=      5-min Rain = 0
KWE1 151527Z 20022KT 30/20 A2978 RMK A01 T02950195  RH  055%=      5-min Rain = 0
KWE1 151528Z 20017G22KT 29/20 A2978 RMK A01 T02940195  RH  055%=      5-min Rain = 0
KWE1 151529Z 20017KT 29/20 A2978 RMK A01 T02940197  RH  056%=      5-min Rain = 0
KWE1 151530Z 20019KT 30/20 A2978 RMK A01 T02950197  RH  056%=      5-min Rain = 0
KWE1 151531Z 19023KT 30/20 A2978 RMK A01 T02950195  RH  055%=      5-min Rain = 0
KWE1 151532Z 19023G28KT 30/20 A2978 RMK A01 T02950195  RH  055%=      5-min Rain = 0
KWE1 151533Z 20023G31KT 30/20 A2977 RMK A01 T02960195  RH  054%=      5-min Rain = 0
KWE1 151534Z 20021G27KT 30/20 A2978 RMK A01 T02970195  RH  054%=      5-min Rain = 0
KWE1 151535Z 21021KT 30/19 A2977 RMK A01 T02970192  RH  053%=      5-min Rain = 0
KWE1 151536Z 21018KT 30/19 A2977 RMK A01 T02960194  RH  054%=      5-min Rain = 0
KWE1 151537Z 21019KT 30/20 A2978 RMK A01 T02960195  RH  054%=      5-min Rain = 0
KWE1 151538Z 20015G21KT 30/20 A2978 RMK A01 T02970197  RH  055%=      5-min Rain = 0
KWE1 151539Z 21017KT 30/20 A2978 RMK A01 T02980197  RH  055%=      5-min Rain = 0
KWE1 151540Z 21017KT 30/20 A2978 RMK A01 T02980198  RH  055%=      5-min Rain = 0
KWE1 151541Z 20016KT 30/20 A2977 RMK A01 T03000198  RH  054%=      5-min Rain = 0
KWE1 151542Z 20017KT 30/20 A2977 RMK A01 T03010196  RH  053%=      5-min Rain = 0
KWE1 151543Z 21019KT 30/20 A2977 RMK A01 T03010197  RH  054%=      5-min Rain = 0
KWE1 151544Z 20016KT 30/20 A2977 RMK A01 T03010197  RH  054%=      5-min Rain = 0
KWE1 151545Z 20016KT 30/20 A2977 RMK A01 T03020197  RH  053%=      5-min Rain = 0
KWE1 151546Z 20017KT 30/20 A2977 RMK A01 T03030197  RH  053%=      5-min Rain = 0
KWE1 151547Z 20016KT 30/20 A2977 RMK A01 T03030195  RH  052%=      5-min Rain = 0
KWE1 151548Z 20019KT 30/20 A2977 RMK A01 T03040197  RH  053%=      5-min Rain = 0
KWE1 151549Z 21019KT 30/19 A2977 RMK A01 T03030193  RH  052%=      5-min Rain = 0
KWE1 151550Z 20020KT 30/19 A2977 RMK A01 T03020192  RH  052%=      5-min Rain = 0
KWE1 151551Z 21021KT 30/19 A2977 RMK A01 T03010194  RH  052%=      5-min Rain = 0
KWE1 151552Z 19022KT 30/19 A2977 RMK A01 T03020192  RH  052%=      5-min Rain = 0
KWE1 151553Z 20020KT 30/19 A2977 RMK A01 T03030191  RH  051%=      5-min Rain = 0
KWE1 151554Z 21020G25KT 30/19 A2977 RMK A01 T03030193  RH  052%=      5-min Rain = 0
KWE1 151555Z 21023G28KT 31/19 A2977 RMK A01 T03050190  RH  050%=      5-min Rain = 0
KWE1 151556Z 21020G26KT 31/19 A2977 RMK A01 T03050187  RH  049%=      5-min Rain = 0
KWE1 151557Z 21019KT 30/19 A2977 RMK A01 T03040189  RH  050%=      5-min Rain = 0
KWE1 151558Z 20023G28KT 30/19 A2977 RMK A01 T03040188  RH  050%=      5-min Rain = 0
KWE1 151559Z 21022KT 30/19 A2977 RMK A01 T03040187  RH  049%=      5-min Rain = 0
KWE1 151600Z 21018G24KT 30/19 A2977 RMK A01 T03040188  RH  050%=      5-min Rain = 0
KWE1 151601Z 21024KT 31/19 A2977 RMK A01 T03050188  RH  050%=      5-min Rain = 0
KWE1 151602Z 21022KT 31/19 A2977 RMK A01 T03060188  RH  049%=      5-min Rain = 0
KWE1 151603Z 21020KT 31/19 A2977 RMK A01 T03060188  RH  049%=      5-min Rain = 0
KWE1 151604Z 21020KT 31/19 A2978 RMK A01 T03060189  RH  050%=      5-min Rain = 0
KWE1 151605Z 21021KT 31/19 A2978 RMK A01 T03060187  RH  049%=      5-min Rain = 0
KWE1 151606Z 20017KT 31/19 A2978 RMK A01 T03050188  RH  050%=      5-min Rain = 0
KWE1 151607Z 20019KT 31/19 A2978 RMK A01 T03050188  RH  050%=      5-min Rain = 0
KWE1 151608Z 21022KT 31/19 A2978 RMK A01 T03060189  RH  050%=      5-min Rain = 0
KWE1 151609Z 20019KT 31/19 A2978 RMK A01 T03060190  RH  050%=      5-min Rain = 0
KWE1 151610Z 20021KT 31/19 A2978 RMK A01 T03070188  RH  049%=      5-min Rain = 0
KWE1 151611Z 21021KT 31/19 A2978 RMK A01 T03080190  RH  049%=      5-min Rain = 0
KWE1 151612Z 22016G21KT 31/19 A2978 RMK A01 T03070191  RH  050%=      5-min Rain = 0
KWE1 151613Z 19016G21KT 31/20 A2978 RMK A01 T03080195  RH  051%=      5-min Rain = 0
KWE1 151614Z 19019KT 31/19 A2978 RMK A01 T03110193  RH  050%=      5-min Rain = 0
KWE1 151615Z 20019KT 31/19 A2978 RMK A01 T03120193  RH  049%=      5-min Rain = 0
KWE1 151616Z 20014KT 31/19 A2978 RMK A01 T03120194  RH  049%=      5-min Rain = 0
KWE1 151617Z 20014KT 31/20 A2978 RMK A01 T03120196  RH  050%=      5-min Rain = 0
KWE1 151618Z 20017KT 31/19 A2978 RMK A01 T03130194  RH  049%=      5-min Rain = 0
KWE1 151619Z 21017KT 31/19 A2978 RMK A01 T03130193  RH  049%=      5-min Rain = 0
KWE1 151620Z 20020G25KT 31/19 A2978 RMK A01 T03110193  RH  050%=      5-min Rain = 0
KWE1 151621Z 20021KT 31/19 A2978 RMK A01 T03100190  RH  049%=      5-min Rain = 0
KWE1 151622Z 20019KT 31/19 A2978 RMK A01 T03100190  RH  049%=      5-min Rain = 0
KWE1 151623Z 20017KT 31/19 A2978 RMK A01 T03120192  RH  049%=      5-min Rain = 0
KWE1 151624Z 20020KT 31/19 A2978 RMK A01 T03130190  RH  048%=      5-min Rain = 0
KWE1 151625Z 20019KT 31/19 A2978 RMK A01 T03130188  RH  048%=      5-min Rain = 0
KWE1 151626Z 20018G24KT 31/19 A2978 RMK A01 T03130191  RH  048%=      5-min Rain = 0
KWE1 151627Z 20022KT 31/19 A2978 RMK A01 T03130190  RH  048%=      5-min Rain = 0
KWE1 151628Z 20020KT 31/19 A2978 RMK A01 T03130189  RH  048%=      5-min Rain = 0
KWE1 151629Z 20016KT 31/19 A2978 RMK A01 T03110191  RH  049%=      5-min Rain = 0
KWE1 151630Z 21016KT 31/19 A2978 RMK A01 T03100191  RH  049%=      5-min Rain = 0
KWE1 151631Z 21019KT 31/20 A2977 RMK A01 T03120195  RH  050%=      5-min Rain = 0
KWE1 151632Z 21019KT 31/19 A2977 RMK A01 T03130193  RH  049%=      5-min Rain = 0
KWE1 151633Z 21014G21KT 31/20 A2978 RMK A01 T03130195  RH  049%=      5-min Rain = 0
KWE1 151634Z 20016G21KT 32/20 A2978 RMK A01 T03150196  RH  049%=      5-min Rain = 0
KWE1 151635Z 20018G23KT 32/19 A2978 RMK A01 T03160191  RH  048%=      5-min Rain = 0
KWE1 151636Z 21018G25KT 32/19 A2978 RMK A01 T03150189  RH  047%=      5-min Rain = 0
KWE1 151637Z 21018KT 31/19 A2978 RMK A01 T03140191  RH  048%=      5-min Rain = 0
KWE1 151638Z 22019G24KT 31/19 A2978 RMK A01 T03140192  RH  048%=      5-min Rain = 0
KWE1 151639Z 21016KT 31/19 A2978 RMK A01 T03140192  RH  048%=      5-min Rain = 0
KWE1 151640Z 20019KT 31/19 A2978 RMK A01 T03140190  RH  048%=      5-min Rain = 0
KWE1 151641Z 20016KT 31/19 A2978 RMK A01 T03140190  RH  048%=      5-min Rain = 0
KWE1 151642Z 20014KT 32/19 A2978 RMK A01 T03150192  RH  048%=      5-min Rain = 0
KWE1 151643Z 20017G22KT 32/19 A2978 RMK A01 T03170194  RH  048%=      5-min Rain = 0
KWE1 151644Z 20017KT 32/19 A2978 RMK A01 T03180190  RH  047%=      5-min Rain = 0
KWE1 151645Z 22018G23KT 32/19 A2978 RMK A01 T03180193  RH  047%=      5-min Rain = 0
KWE1 151646Z 21018KT 32/19 A2978 RMK A01 T03180191  RH  047%=      5-min Rain = 0
KWE1 151647Z 21017KT 32/19 A2977 RMK A01 T03180191  RH  047%=      5-min Rain = 0
KWE1 151648Z 20017KT 32/19 A2977 RMK A01 T03180193  RH  048%=      5-min Rain = 0
KWE1 151649Z 20017KT 32/19 A2977 RMK A01 T03200194  RH  047%=      5-min Rain = 0
KWE1 151650Z 20018KT 32/19 A2977 RMK A01 T03210192  RH  046%=      5-min Rain = 0
KWE1 151651Z 20016KT 32/19 A2978 RMK A01 T03190193  RH  047%=      5-min Rain = 0
KWE1 151652Z 19016KT 32/20 A2978 RMK A01 T03210196  RH  048%=      5-min Rain = 0
KWE1 151653Z 20020KT 32/20 A2977 RMK A01 T03230195  RH  047%=      5-min Rain = 0
KWE1 151654Z 20016KT 32/20 A2978 RMK A01 T03230196  RH  047%=      5-min Rain = 0
KWE1 151655Z 19018KT 32/20 A2978 RMK A01 T03230196  RH  047%=      5-min Rain = 0
KWE1 151656Z 19019KT 32/20 A2978 RMK A01 T03230195  RH  047%=      5-min Rain = 0
KWE1 151657Z 20018KT 32/19 A2978 RMK A01 T03240193  RH  046%=      5-min Rain = 0
KWE1 151658Z 20016KT 32/19 A2978 RMK A01 T03230193  RH  046%=      5-min Rain = 0
KWE1 151659Z 19015KT 32/20 A2978 RMK A01 T03220195  RH  047%=      5-min Rain = 0
KWE1 151700Z 20016KT 32/20 A2978 RMK A01 T03220196  RH  047%=      5-min Rain = 0
KWE1 151701Z 20014KT 33/20 A2977 RMK A01 T03250196  RH  047%=      5-min Rain = 0
KWE1 151702Z 20016G22KT 32/20 A2977 RMK A01 T03240195  RH  047%=      5-min Rain = 0
KWE1 151703Z 20016KT 32/19 A2977 RMK A01 T03240193  RH  046%=      5-min Rain = 0
KWE1 151704Z 19015KT 32/20 A2977 RMK A01 T03220195  RH  047%=      5-min Rain = 0
KWE1 151705Z 20018KT 32/19 A2977 RMK A01 T03240194  RH  046%=      5-min Rain = 0
KWE1 151706Z 21015KT 33/19 A2977 RMK A01 T03250193  RH  046%=      5-min Rain = 0
KWE1 151707Z 20013KT 32/20 A2977 RMK A01 T03230197  RH  047%=      5-min Rain = 0
KWE1 151708Z 19019KT 33/20 A2977 RMK A01 T03250197  RH  047%=      5-min Rain = 0
KWE1 151709Z 19020KT 33/19 A2977 RMK A01 T03260194  RH  046%=      5-min Rain = 0
KWE1 151710Z 20016KT 33/19 A2977 RMK A01 T03260193  RH  045%=      5-min Rain = 0
KWE1 151711Z 20017KT 33/20 A2977 RMK A01 T03250195  RH  046%=      5-min Rain = 0
KWE1 151712Z 20018KT 33/19 A2977 RMK A01 T03270193  RH  045%=      5-min Rain = 0
KWE1 151713Z 19016KT 33/20 A2977 RMK A01 T03270196  RH  046%=      5-min Rain = 0
KWE1 151714Z 20016G21KT 33/19 A2977 RMK A01 T03260194  RH  046%=      5-min Rain = 0
KWE1 151715Z 20017KT 33/19 A2977 RMK A01 T03250193  RH  046%=      5-min Rain = 0
KWE1 151716Z 20014KT 32/20 A2977 RMK A01 T03240195  RH  046%=      5-min Rain = 0
KWE1 151717Z 19017G25KT 32/20 A2977 RMK A01 T03240196  RH  047%=      5-min Rain = 0
KWE1 151718Z 20016KT 33/20 A2977 RMK A01 T03260196  RH  046%=      5-min Rain = 0
KWE1 151719Z 19017KT 33/20 A2977 RMK A01 T03270197  RH  046%=      5-min Rain = 0
KWE1 151720Z 19015G23KT 33/20 A2977 RMK A01 T03300198  RH  046%=      5-min Rain = 0
KWE1 151721Z 18020KT 33/19 A2977 RMK A01 T03300194  RH  045%=      5-min Rain = 0
KWE1 151722Z 19017KT 33/19 A2977 RMK A01 T03300193  RH  045%=      5-min Rain = 0
KWE1 151723Z 19019KT 33/19 A2977 RMK A01 T03300194  RH  045%=      5-min Rain = 0
KWE1 151724Z 20017KT 33/20 A2977 RMK A01 T03290195  RH  045%=      5-min Rain = 0
KWE1 151725Z 20017KT 33/19 A2977 RMK A01 T03280194  RH  045%=      5-min Rain = 0
KWE1 151726Z 19020KT 33/19 A2977 RMK A01 T03270193  RH  045%=      5-min Rain = 0
KWE1 151727Z 19018KT 33/19 A2977 RMK A01 T03270191  RH  044%=      5-min Rain = 0
KWE1 151728Z 19015KT 33/19 A2977 RMK A01 T03290194  RH  045%=      5-min Rain = 0
KWE1 151729Z 19014G20KT 33/20 A2977 RMK A01 T03320195  RH  045%=      5-min Rain = 0
KWE1 151730Z 19020KT 33/19 A2977 RMK A01 T03330194  RH  044%=      5-min Rain = 0
KWE1 151731Z 20020KT 33/19 A2977 RMK A01 T03310193  RH  044%=      5-min Rain = 0
KWE1 151732Z 21019KT 33/19 A2977 RMK A01 T03290193  RH  045%=      5-min Rain = 0
KWE1 151733Z 21015KT 33/19 A2977 RMK A01 T03270194  RH  045%=      5-min Rain = 0
KWE1 151734Z 21018KT 33/20 A2977 RMK A01 T03270196  RH  046%=      5-min Rain = 0
KWE1 151735Z 20015KT 33/19 A2977 RMK A01 T03270192  RH  045%=      5-min Rain = 0
KWE1 151736Z 19013G18KT 33/20 A2977 RMK A01 T03280196  RH  046%=      5-min Rain = 0
KWE1 151737Z 19018KT 33/20 A2977 RMK A01 T03320197  RH  045%=      5-min Rain = 0
KWE1 151738Z 19019KT 34/20 A2977 RMK A01 T03350196  RH  044%=      5-min Rain = 0
KWE1 151739Z 19020KT 34/20 A2977 RMK A01 T03360195  RH  044%=      5-min Rain = 0
KWE1 151740Z 19020KT 34/20 A2977 RMK A01 T03360195  RH  043%=      5-min Rain = 0
KWE1 151741Z 19019KT 33/19 A2977 RMK A01 T03330193  RH  044%=      5-min Rain = 0
KWE1 151742Z 19015KT 33/19 A2977 RMK A01 T03320193  RH  044%=      5-min Rain = 0
KWE1 151743Z 21016G22KT 33/20 A2977 RMK A01 T03320197  RH  045%=      5-min Rain = 0
KWE1 151744Z 19017KT 33/20 A2977 RMK A01 T03330195  RH  044%=      5-min Rain = 0
KWE1 151745Z 19015KT 33/19 A2977 RMK A01 T03330193  RH  044%=      5-min Rain = 0
KWE1 151746Z 19014KT 33/19 A2977 RMK A01 T03330194  RH  044%=      5-min Rain = 0
KWE1 151747Z 19015KT 33/20 A2977 RMK A01 T03340195  RH  044%=      5-min Rain = 0
KWE1 151748Z 20015G20KT 34/20 A2977 RMK A01 T03390199  RH  044%=      5-min Rain = 0
KWE1 151749Z 20017KT 34/19 A2977 RMK A01 T03390194  RH  042%=      5-min Rain = 0
KWE1 151750Z 20015KT 34/19 A2977 RMK A01 T03360194  RH  043%=      5-min Rain = 0
KWE1 151751Z 20016G22KT 34/20 A2977 RMK A01 T03350195  RH  044%=      5-min Rain = 0
KWE1 151752Z 20016KT 34/19 A2977 RMK A01 T03360194  RH  043%=      5-min Rain = 0
KWE1 151753Z 20015KT 34/20 A2977 RMK A01 T03370195  RH  043%=      5-min Rain = 0
KWE1 151754Z 20011KT 34/19 A2977 RMK A01 T03360193  RH  043%=      5-min Rain = 0
KWE1 151755Z 20014KT 34/20 A2977 RMK A01 T03350195  RH  044%=      5-min Rain = 0
KWE1 151756Z 19017KT 34/19 A2977 RMK A01 T03350194  RH  043%=      5-min Rain = 0
KWE1 151757Z 18016KT 34/20 A2977 RMK A01 T03380195  RH  043%=      5-min Rain = 0
KWE1 151758Z 19021KT 34/20 A2976 RMK A01 T03420196  RH  042%=      5-min Rain = 0
KWE1 151759Z 20018KT 34/19 A2976 RMK A01 T03420192  RH  041%=      5-min Rain = 0
KWE1 151800Z 21016KT 34/19 A2976 RMK A01 T03410194  RH  042%=      5-min Rain = 0
KWE1 151801Z 21015KT 34/20 A2977 RMK A01 T03390195  RH  043%=      5-min Rain = 0
KWE1 151802Z 18013KT 34/20 A2977 RMK A01 T03380196  RH  043%=      5-min Rain = 0
KWE1 151803Z 19017KT 34/20 A2976 RMK A01 T03400196  RH  043%=      5-min Rain = 0
KWE1 151804Z 19020KT 34/19 A2976 RMK A01 T03410193  RH  042%=      5-min Rain = 0
KWE1 151805Z 18018KT 34/19 A2976 RMK A01 T03400193  RH  042%=      5-min Rain = 0
KWE1 151806Z 19017KT 34/19 A2976 RMK A01 T03390194  RH  043%=      5-min Rain = 0
KWE1 151807Z 19015KT 34/20 A2976 RMK A01 T03390195  RH  043%=      5-min Rain = 0
KWE1 151808Z 21010KT 34/20 A2976 RMK A01 T03400197  RH  043%=      5-min Rain = 0
KWE1 151809Z 20013KT 34/20 A2976 RMK A01 T03410196  RH  042%=      5-min Rain = 0
KWE1 151810Z 20019KT 34/19 A2976 RMK A01 T03410194  RH  042%=      5-min Rain = 0
KWE1 151811Z 20017KT 34/19 A2976 RMK A01 T03410191  RH  041%=      5-min Rain = 0
KWE1 151812Z 20017KT 34/19 A2976 RMK A01 T03390190  RH  041%=      5-min Rain = 0
KWE1 151813Z 19016KT 34/19 A2976 RMK A01 T03380191  RH  042%=      5-min Rain = 0
KWE1 151814Z 19017KT 34/19 A2976 RMK A01 T03390194  RH  043%=      5-min Rain = 0
KWE1 151815Z 18017KT 34/19 A2976 RMK A01 T03410194  RH  042%=      5-min Rain = 0
KWE1 151816Z 19015KT 34/20 A2976 RMK A01 T03410195  RH  042%=      5-min Rain = 0
KWE1 151817Z 19015KT 34/20 A2976 RMK A01 T03420195  RH  042%=      5-min Rain = 0
KWE1 151818Z 18020KT 34/19 A2976 RMK A01 T03410193  RH  042%=      5-min Rain = 0
KWE1 151819Z 19017KT 34/19 A2976 RMK A01 T03430192  RH  041%=      5-min Rain = 0
KWE1 151820Z 19017KT 35/19 A2976 RMK A01 T03460194  RH  041%=      5-min Rain = 0
KWE1 151821Z 20014KT 35/19 A2976 RMK A01 T03460194  RH  041%=      5-min Rain = 0
KWE1 151822Z 18017KT 35/20 A2976 RMK A01 T03450195  RH  042%=      5-min Rain = 0
KWE1 151823Z 18014KT 35/20 A2976 RMK A01 T03450195  RH  041%=      5-min Rain = 0
KWE1 151824Z 18017KT 35/19 A2976 RMK A01 T03450194  RH  041%=      5-min Rain = 0
KWE1 151825Z 21015KT 35/19 A2976 RMK A01 T03470188  RH  039%=      5-min Rain = 0
KWE1 151826Z 21013KT 35/18 A2976 RMK A01 T03470183  RH  038%=      5-min Rain = 0
KWE1 151827Z 20013G20KT 35/18 A2976 RMK A01 T03450179  RH  037%=      5-min Rain = 0
KWE1 151828Z 21013KT 35/18 A2976 RMK A01 T03450183  RH  038%=      5-min Rain = 0
KWE1 151829Z 20014KT 35/19 A2976 RMK A01 T03460189  RH  040%=      5-min Rain = 0
KWE1 151830Z 19015KT 35/20 A2976 RMK A01 T03470195  RH  041%=      5-min Rain = 0
KWE1 151831Z 20015KT 35/19 A2976 RMK A01 T03480193  RH  040%=      5-min Rain = 0
KWE1 151832Z 18012G17KT 35/20 A2976 RMK A01 T03470195  RH  041%=      5-min Rain = 0
KWE1 151833Z 18017KT 35/20 A2976 RMK A01 T03470195  RH  041%=      5-min Rain = 0
KWE1 151834Z 17018KT 35/19 A2975 RMK A01 T03480194  RH  040%=      5-min Rain = 0
KWE1 151835Z 18014KT 35/19 A2975 RMK A01 T03480192  RH  040%=      5-min Rain = 0
KWE1 151836Z 18016KT 35/19 A2975 RMK A01 T03470194  RH  041%=      5-min Rain = 0
KWE1 151837Z 18014KT 35/19 A2975 RMK A01 T03470193  RH  040%=      5-min Rain = 0
KWE1 151838Z 17015KT 35/20 A2975 RMK A01 T03460195  RH  041%=      5-min Rain = 0
KWE1 151839Z 17019KT 35/20 A2975 RMK A01 T03480196  RH  041%=      5-min Rain = 0
KWE1 151840Z 17018KT 35/19 A2975 RMK A01 T03490194  RH  040%=      5-min Rain = 0
KWE1 151841Z 18017KT 35/20 A2975 RMK A01 T03500196  RH  040%=      5-min Rain = 0
KWE1 151842Z 17017KT 35/19 A2975 RMK A01 T03520194  RH  040%=      5-min Rain = 0
KWE1 151843Z 17019KT 35/19 A2975 RMK A01 T03500193  RH  040%=      5-min Rain = 0
KWE1 151844Z 17019KT 35/20 A2975 RMK A01 T03500196  RH  041%=      5-min Rain = 0
KWE1 151845Z 17018KT 35/20 A2975 RMK A01 T03500195  RH  040%=      5-min Rain = 0
KWE1 151846Z 17015G21KT 35/19 A2975 RMK A01 T03490194  RH  040%=      5-min Rain = 0
KWE1 151847Z 17017KT 35/19 A2975 RMK A01 T03480193  RH  040%=      5-min Rain = 0
KWE1 151848Z 18013KT 35/20 A2975 RMK A01 T03470196  RH  041%=      5-min Rain = 0
KWE1 151849Z 19015KT 35/20 A2975 RMK A01 T03470197  RH  042%=      5-min Rain = 0
KWE1 151850Z 18012KT 35/20 A2975 RMK A01 T03470196  RH  041%=      5-min Rain = 0
KWE1 151851Z 17014G20KT 35/19 A2975 RMK A01 T03450194  RH  041%=      5-min Rain = 0
KWE1 151852Z 19014KT 35/20 A2975 RMK A01 T03460198  RH  042%=      5-min Rain = 0
KWE1 151853Z 19016KT 35/20 A2975 RMK A01 T03500197  RH  041%=      5-min Rain = 0
KWE1 151854Z 20015G21KT 35/19 A2975 RMK A01 T03530192  RH  039%=      5-min Rain = 0
KWE1 151855Z 19017KT 35/19 A2975 RMK A01 T03530192  RH  039%=      5-min Rain = 0
KWE1 151856Z 20014KT 35/19 A2975 RMK A01 T03510193  RH  040%=      5-min Rain = 0
KWE1 151857Z 19015KT 35/20 A2974 RMK A01 T03500196  RH  041%=      5-min Rain = 0
KWE1 151858Z 19017G22KT 35/20 A2974 RMK A01 T03510195  RH  040%=      5-min Rain = 0
KWE1 151859Z 18020KT 35/19 A2974 RMK A01 T03520193  RH  039%=      5-min Rain = 0
KWE1 151900Z 20015KT 35/19 A2974 RMK A01 T03520191  RH  039%=      5-min Rain = 0
KWE1 151901Z 19016KT 35/19 A2974 RMK A01 T03500193  RH  040%=      5-min Rain = 0
KWE1 151902Z 19015KT 35/19 A2974 RMK A01 T03500191  RH  039%=      5-min Rain = 0
KWE1 151903Z 20016G21KT 35/19 A2974 RMK A01 T03500194  RH  040%=      5-min Rain = 0
KWE1 151904Z 18015KT 35/20 A2974 RMK A01 T03510196  RH  040%=      5-min Rain = 0
KWE1 151905Z 18011KT 35/20 A2974 RMK A01 T03510196  RH  040%=      5-min Rain = 0
KWE1 151906Z 18011KT 35/20 A2974 RMK A01 T03510199  RH  041%=      5-min Rain = 0
KWE1 151907Z 17015KT 35/20 A2974 RMK A01 T03530198  RH  040%=      5-min Rain = 0
KWE1 151908Z 18018KT 36/20 A2974 RMK A01 T03550197  RH  040%=      5-min Rain = 0
KWE1 151909Z 17015KT 35/20 A2974 RMK A01 T03540196  RH  040%=      5-min Rain = 0
KWE1 151910Z 16019G24KT 35/20 A2974 RMK A01 T03530196  RH  040%=      5-min Rain = 0
KWE1 151911Z 16018KT 35/20 A2974 RMK A01 T03530196  RH  040%=      5-min Rain = 0
KWE1 151912Z 16018KT 35/19 A2974 RMK A01 T03530194  RH  039%=      5-min Rain = 0
KWE1 151913Z 19017KT 35/20 A2974 RMK A01 T03530195  RH  039%=      5-min Rain = 0
KWE1 151914Z 19016KT 35/20 A2974 RMK A01 T03530196  RH  040%=      5-min Rain = 0
KWE1 151915Z 17017KT 35/20 A2974 RMK A01 T03540198  RH  040%=      5-min Rain = 0
KWE1 151916Z 17017KT 36/20 A2974 RMK A01 T03550196  RH  039%=      5-min Rain = 0
KWE1 151917Z 16018KT 35/20 A2974 RMK A01 T03540196  RH  040%=      5-min Rain = 0
KWE1 151918Z 16016KT 35/19 A2974 RMK A01 T03530194  RH  039%=      5-min Rain = 0
KWE1 151919Z 16016KT 35/20 A2974 RMK A01 T03520195  RH  040%=      5-min Rain = 0
KWE1 151920Z 16013KT 35/20 A2974 RMK A01 T03510196  RH  040%=      5-min Rain = 0
KWE1 151921Z 16019G25KT 35/20 A2974 RMK A01 T03520195  RH  040%=      5-min Rain = 0
KWE1 151922Z 16017KT 35/19 A2974 RMK A01 T03530193  RH  039%=      5-min Rain = 0
KWE1 151923Z 17015KT 35/19 A2974 RMK A01 T03540193  RH  039%=      5-min Rain = 0
KWE1 151924Z 18020KT 36/20 A2974 RMK A01 T03560196  RH  039%=      5-min Rain = 0
KWE1 151925Z 18017KT 36/20 A2974 RMK A01 T03560198  RH  040%=      5-min Rain = 0
KWE1 151926Z 17018KT 36/20 A2974 RMK A01 T03550200  RH  041%=      5-min Rain = 0
KWE1 151927Z 16016KT 36/20 A2974 RMK A01 T03570202  RH  041%=      5-min Rain = 0
KWE1 151928Z 17016KT 36/20 A2974 RMK A01 T03590204  RH  040%=      5-min Rain = 0
KWE1 151929Z 16018KT 36/20 A2974 RMK A01 T03590201  RH  040%=      5-min Rain = 0
KWE1 151930Z 17018KT 36/20 A2974 RMK A01 T03570200  RH  040%=      5-min Rain = 0
KWE1 151931Z 18019KT 36/20 A2974 RMK A01 T03570200  RH  040%=      5-min Rain = 0
KWE1 151932Z 19018KT 36/20 A2974 RMK A01 T03580199  RH  039%=      5-min Rain = 0
KWE1 151933Z 18015KT 36/20 A2974 RMK A01 T03570197  RH  039%=      5-min Rain = 0
KWE1 151934Z 18015KT 36/20 A2974 RMK A01 T03560199  RH  040%=      5-min Rain = 0
KWE1 151935Z 19014KT 36/20 A2974 RMK A01 T03570197  RH  039%=      5-min Rain = 0
KWE1 151936Z 18015KT 36/20 A2974 RMK A01 T03550201  RH  041%=      5-min Rain = 0
KWE1 151937Z 20012KT 36/20 A2974 RMK A01 T03560197  RH  040%=      5-min Rain = 0
KWE1 151938Z 19011KT 35/20 A2974 RMK A01 T03530200  RH  041%=      5-min Rain = 0
KWE1 151939Z 18016KT 35/20 A2974 RMK A01 T03540202  RH  041%=      5-min Rain = 0
KWE1 151940Z 19018KT 36/20 A2974 RMK A01 T03570200  RH  040%=      5-min Rain = 0
KWE1 151941Z 18016KT 36/20 A2974 RMK A01 T03580200  RH  040%=      5-min Rain = 0
KWE1 151942Z 18015KT 36/20 A2974 RMK A01 T03590200  RH  039%=      5-min Rain = 0
KWE1 151943Z 17017KT 36/20 A2974 RMK A01 T03590199  RH  039%=      5-min Rain = 0
KWE1 151944Z 19017KT 36/20 A2974 RMK A01 T03580199  RH  039%=      5-min Rain = 0
KWE1 151945Z 18016KT 36/20 A2974 RMK A01 T03570199  RH  040%=      5-min Rain = 0
KWE1 151946Z 16013KT 36/20 A2974 RMK A01 T03580199  RH  040%=      5-min Rain = 0
KWE1 151947Z 17013G19KT 36/20 A2974 RMK A01 T03570202  RH  040%=      5-min Rain = 0
KWE1 151948Z 18018KT 36/20 A2974 RMK A01 T03590201  RH  040%=      5-min Rain = 0
KWE1 151949Z 20017G22KT 36/20 A2974 RMK A01 T03600197  RH  039%=      5-min Rain = 0
KWE1 151950Z 19016G21KT 36/20 A2974 RMK A01 T03570199  RH  040%=      5-min Rain = 0
KWE1 151951Z 18016KT 36/20 A2974 RMK A01 T03560200  RH  040%=      5-min Rain = 0
KWE1 151952Z 20019KT 36/20 A2974 RMK A01 T03590199  RH  039%=      5-min Rain = 0
KWE1 151953Z 20016KT 36/20 A2974 RMK A01 T03580195  RH  039%=      5-min Rain = 0
KWE1 151954Z 19019KT 36/20 A2974 RMK A01 T03550198  RH  040%=      5-min Rain = 0
KWE1 151955Z 19017G23KT 36/20 A2974 RMK A01 T03560196  RH  039%=      5-min Rain = 0
KWE1 151956Z 18019KT 36/20 A2974 RMK A01 T03560199  RH  040%=      5-min Rain = 0
KWE1 151957Z 19015KT 36/20 A2974 RMK A01 T03590200  RH  040%=      5-min Rain = 0
KWE1 151958Z 17021G26KT 36/20 A2973 RMK A01 T03600200  RH  039%=      5-min Rain = 0
KWE1 151959Z 17019KT 36/20 A2973 RMK A01 T03600198  RH  039%=      5-min Rain = 0
KWE1 152000Z 18018G23KT 36/20 A2973 RMK A01 T03600198  RH  039%=      5-min Rain = 0
KWE1 152001Z 17019KT 36/20 A2973 RMK A01 T03580197  RH  039%=      5-min Rain = 0
KWE1 152002Z 18019KT 36/20 A2974 RMK A01 T03580198  RH  039%=      5-min Rain = 0
KWE1 152003Z 18017KT 36/20 A2974 RMK A01 T03600199  RH  039%=      5-min Rain = 0
KWE1 152004Z 17018KT 36/20 A2974 RMK A01 T03600197  RH  038%=      5-min Rain = 0
KWE1 152005Z 17014KT 36/20 A2974 RMK A01 T03590196  RH  039%=      5-min Rain = 0
KWE1 152006Z 17016KT 36/20 A2974 RMK A01 T03580198  RH  039%=      5-min Rain = 0
KWE1 152007Z 17023KT 36/20 A2974 RMK A01 T03580197  RH  039%=      5-min Rain = 0
KWE1 152008Z 18020KT 36/20 A2974 RMK A01 T03590196  RH  039%=      5-min Rain = 0
KWE1 152009Z 17018KT 36/20 A2974 RMK A01 T03570197  RH  039%=      5-min Rain = 0
KWE1 152010Z 18017KT 36/20 A2974 RMK A01 T03570197  RH  039%=      5-min Rain = 0
KWE1 152011Z 19018KT 36/20 A2974 RMK A01 T03580198  RH  039%=      5-min Rain = 0
KWE1 152012Z 19015KT 36/20 A2974 RMK A01 T03590197  RH  039%=      5-min Rain = 0
KWE1 152013Z 19017KT 36/20 A2974 RMK A01 T03600198  RH  039%=      5-min Rain = 0
KWE1 152014Z 20016KT 36/20 A2974 RMK A01 T03600197  RH  039%=      5-min Rain = 0
KWE1 152015Z 18021KT 36/20 A2974 RMK A01 T03590199  RH  039%=      5-min Rain = 0
KWE1 152016Z 18021KT 36/20 A2974 RMK A01 T03590196  RH  038%=      5-min Rain = 0
KWE1 152017Z 18019KT 36/20 A2974 RMK A01 T03580197  RH  039%=      5-min Rain = 0
KWE1 152018Z 19016KT 36/20 A2974 RMK A01 T03580200  RH  040%=      5-min Rain = 0
KWE1 152019Z 17016KT 36/20 A2974 RMK A01 T03570203  RH  041%=      5-min Rain = 0
KWE1 152020Z 16015KT 36/21 A2973 RMK A01 T03570207  RH  042%=      5-min Rain = 0
KWE1 152021Z 16015G20KT 36/21 A2973 RMK A01 T03590206  RH  041%=      5-min Rain = 0
KWE1 152022Z 16017KT 36/21 A2973 RMK A01 T03580205  RH  041%=      5-min Rain = 0
KWE1 152023Z 18020KT 36/20 A2973 RMK A01 T03580204  RH  041%=      5-min Rain = 0
KWE1 152024Z 18019KT 36/21 A2973 RMK A01 T03580205  RH  041%=      5-min Rain = 0
KWE1 152025Z 19017KT 36/21 A2973 RMK A01 T03570206  RH  041%=      5-min Rain = 0
KWE1 152026Z 17016KT 36/20 A2973 RMK A01 T03580204  RH  041%=      5-min Rain = 0
KWE1 152027Z 16013KT 36/21 A2973 RMK A01 T03570205  RH  041%=      5-min Rain = 0
KWE1 152028Z 17021KT 36/20 A2973 RMK A01 T03580204  RH  041%=      5-min Rain = 0
KWE1 152029Z 19019KT 36/20 A2973 RMK A01 T03610197  RH  038%=      5-min Rain = 0
KWE1 152030Z 18019KT 36/20 A2973 RMK A01 T03620195  RH  038%=      5-min Rain = 0
KWE1 152031Z 17015KT 36/20 A2973 RMK A01 T03620196  RH  038%=      5-min Rain = 0
KWE1 152032Z 17016KT 36/20 A2973 RMK A01 T03620195  RH  038%=      5-min Rain = 0
KWE1 152033Z 18016KT 36/20 A2973 RMK A01 T03620197  RH  038%=      5-min Rain = 0
KWE1 152034Z 17018KT 36/20 A2973 RMK A01 T03620197  RH  038%=      5-min Rain = 0
KWE1 152035Z 17018KT 36/19 A2973 RMK A01 T03620194  RH  037%=      5-min Rain = 0
KWE1 152036Z 17020KT 36/19 A2973 RMK A01 T03620193  RH  037%=      5-min Rain = 0
KWE1 152037Z 17016KT 36/19 A2973 RMK A01 T03620193  RH  037%=      5-min Rain = 0
KWE1 152038Z 17019KT 36/19 A2973 RMK A01 T03610193  RH  037%=      5-min Rain = 0
KWE1 152039Z 19015KT 36/20 A2973 RMK A01 T03610195  RH  038%=      5-min Rain = 0
KWE1 152040Z 18019KT 36/20 A2973 RMK A01 T03610198  RH  039%=      5-min Rain = 0
KWE1 152041Z 18020KT 36/19 A2973 RMK A01 T03630194  RH  037%=      5-min Rain = 0
KWE1 152042Z 19017KT 36/19 A2973 RMK A01 T03640193  RH  037%=      5-min Rain = 0
KWE1 152043Z 17014KT 36/20 A2973 RMK A01 T03620196  RH  038%=      5-min Rain = 0
KWE1 152044Z 18013KT 36/20 A2973 RMK A01 T03630197  RH  038%=      5-min Rain = 0
KWE1 152045Z 16016KT 37/19 A2973 RMK A01 T03650194  RH  037%=      5-min Rain = 0
KWE1 152046Z 16016KT 36/19 A2973 RMK A01 T03640193  RH  037%=      5-min Rain = 0
KWE1 152047Z 17018KT 36/19 A2973 RMK A01 T03630193  RH  037%=      5-min Rain = 0
KWE1 152048Z 16016KT 36/19 A2973 RMK A01 T03630193  RH  037%=      5-min Rain = 0
KWE1 152049Z 17016KT 36/19 A2973 RMK A01 T03630192  RH  037%=      5-min Rain = 0
KWE1 152050Z 18013KT 36/19 A2973 RMK A01 T03630194  RH  037%=      5-min Rain = 0
KWE1 152051Z 17016KT 36/20 A2973 RMK A01 T03630195  RH  037%=      5-min Rain = 0
KWE1 152052Z 18015KT 37/19 A2973 RMK A01 T03650193  RH  037%=      5-min Rain = 0
KWE1 152053Z 18016KT 36/19 A2973 RMK A01 T03640193  RH  037%=      5-min Rain = 0
KWE1 152054Z 17012KT 36/19 A2973 RMK A01 T03630191  RH  037%=      5-min Rain = 0
KWE1 152055Z 15018KT 36/20 A2973 RMK A01 T03620198  RH  038%=      5-min Rain = 0
KWE1 152056Z 16015KT 36/20 A2973 RMK A01 T03620197  RH  038%=      5-min Rain = 0
KWE1 152057Z 17014G19KT 36/20 A2973 RMK A01 T03620199  RH  039%=      5-min Rain = 0
KWE1 152058Z 17017KT 36/20 A2973 RMK A01 T03600203  RH  040%=      5-min Rain = 0
KWE1 152059Z 20017KT 36/20 A2973 RMK A01 T03610196  RH  038%=      5-min Rain = 0
KWE1 152100Z 20015KT 36/19 A2973 RMK A01 T03610192  RH  037%=      5-min Rain = 0
KWE1 152101Z 20013KT 36/19 A2973 RMK A01 T03590192  RH  038%=      5-min Rain = 0
KWE1 152102Z 20015KT 36/19 A2973 RMK A01 T03580192  RH  038%=      5-min Rain = 0
KWE1 152103Z 21016KT 36/19 A2973 RMK A01 T03580193  RH  038%=      5-min Rain = 0
KWE1 152104Z 20013KT 36/20 A2973 RMK A01 T03590197  RH  039%=      5-min Rain = 0
KWE1 152105Z 18016KT 36/19 A2973 RMK A01 T03610193  RH  038%=      5-min Rain = 0
KWE1 152106Z 17011KT 36/19 A2973 RMK A01 T03620190  RH  037%=      5-min Rain = 0
KWE1 152107Z 18014G22KT 36/19 A2973 RMK A01 T03610191  RH  037%=      5-min Rain = 0
KWE1 152108Z 18018KT 36/19 A2973 RMK A01 T03620188  RH  036%=      5-min Rain = 0
KWE1 152109Z 19017KT 36/19 A2973 RMK A01 T03630188  RH  036%=      5-min Rain = 0
KWE1 152110Z 19016KT 36/19 A2973 RMK A01 T03630186  RH  036%=      5-min Rain = 0
KWE1 152111Z 18014KT 36/19 A2973 RMK A01 T03620189  RH  036%=      5-min Rain = 0
KWE1 152112Z 18014KT 36/19 A2973 RMK A01 T03630190  RH  036%=      5-min Rain = 0
KWE1 152113Z 18016KT 36/19 A2973 RMK A01 T03630191  RH  037%=      5-min Rain = 0
KWE1 152114Z 19016KT 37/19 A2973 RMK A01 T03650193  RH  037%=      5-min Rain = 0
KWE1 152115Z 19018KT 37/19 A2972 RMK A01 T03650194  RH  037%=      5-min Rain = 0
KWE1 152116Z 19015KT 36/20 A2973 RMK A01 T03640195  RH  037%=      5-min Rain = 0
KWE1 152117Z 19011KT 37/20 A2973 RMK A01 T03650197  RH  038%=      5-min Rain = 0
KWE1 152118Z 20014KT 37/20 A2973 RMK A01 T03660195  RH  037%=      5-min Rain = 0
KWE1 152119Z 20014KT 37/19 A2972 RMK A01 T03650191  RH  036%=      5-min Rain = 0
KWE1 152120Z 19017KT 36/19 A2972 RMK A01 T03630191  RH  037%=      5-min Rain = 0
KWE1 152121Z 19016KT 36/19 A2972 RMK A01 T03640189  RH  036%=      5-min Rain = 0
KWE1 152122Z 19014KT 36/19 A2972 RMK A01 T03630187  RH  036%=      5-min Rain = 0
KWE1 152123Z 20016KT 36/19 A2972 RMK A01 T03620187  RH  036%=      5-min Rain = 0
KWE1 152124Z 18018KT 36/19 A2972 RMK A01 T03630193  RH  037%=      5-min Rain = 0
KWE1 152125Z 18017KT 37/19 A2972 RMK A01 T03670194  RH  037%=      5-min Rain = 0
KWE1 152126Z 19017KT 37/19 A2972 RMK A01 T03680188  RH  035%=      5-min Rain = 0
KWE1 152127Z 20016KT 37/19 A2972 RMK A01 T03670185  RH  034%=      5-min Rain = 0
KWE1 152128Z 20014KT 36/19 A2972 RMK A01 T03630185  RH  035%=      5-min Rain = 0
KWE1 152129Z 19011KT 36/18 A2972 RMK A01 T03620181  RH  035%=      5-min Rain = 0
KWE1 152130Z 18011KT 36/18 A2972 RMK A01 T03590184  RH  036%=      5-min Rain = 0
KWE1 152131Z 19013KT 36/19 A2972 RMK A01 T03610187  RH  036%=      5-min Rain = 0
KWE1 152132Z 18013KT 36/19 A2972 RMK A01 T03610191  RH  037%=      5-min Rain = 0
KWE1 152133Z 17018KT 36/20 A2972 RMK A01 T03630200  RH  039%=      5-min Rain = 0
KWE1 152134Z 17016KT 36/20 A2972 RMK A01 T03630203  RH  039%=      5-min Rain = 0
KWE1 152135Z 18015KT 36/20 A2972 RMK A01 T03620203  RH  040%=      5-min Rain = 0
KWE1 152136Z 19015KT 36/20 A2972 RMK A01 T03620198  RH  038%=      5-min Rain = 0
KWE1 152137Z 20015KT 36/20 A2972 RMK A01 T03630196  RH  038%=      5-min Rain = 0
KWE1 152138Z 19017KT 36/20 A2972 RMK A01 T03630198  RH  038%=      5-min Rain = 0
KWE1 152139Z 17015KT 36/20 A2972 RMK A01 T03610201  RH  039%=      5-min Rain = 0
KWE1 152140Z 17018KT 36/20 A2972 RMK A01 T03610201  RH  039%=      5-min Rain = 0
KWE1 152141Z 17016KT 36/20 A2972 RMK A01 T03610203  RH  040%=      5-min Rain = 0
KWE1 152142Z 16016KT 36/21 A2972 RMK A01 T03620206  RH  040%=      5-min Rain = 0
KWE1 152143Z 15016KT 36/21 A2972 RMK A01 T03640205  RH  040%=      5-min Rain = 0
KWE1 152144Z 16016KT 36/20 A2972 RMK A01 T03630204  RH  040%=      5-min Rain = 0
KWE1 152145Z 17016KT 36/21 A2972 RMK A01 T03630206  RH  040%=      5-min Rain = 0
KWE1 152146Z 18015KT 36/20 A2972 RMK A01 T03620203  RH  040%=      5-min Rain = 0
KWE1 152147Z 20013KT 36/20 A2972 RMK A01 T03600199  RH  039%=      5-min Rain = 0
KWE1 152148Z 21014KT 36/19 A2971 RMK A01 T03600191  RH  037%=      5-min Rain = 0
KWE1 152149Z 19016G21KT 36/19 A2971 RMK A01 T03590191  RH  037%=      5-min Rain = 0
KWE1 152150Z 18020KT 36/19 A2971 RMK A01 T03590193  RH  038%=      5-min Rain = 0
KWE1 152151Z 19020KT 36/19 A2971 RMK A01 T03600193  RH  037%=      5-min Rain = 0
KWE1 152152Z 20018KT 36/19 A2971 RMK A01 T03600192  RH  037%=      5-min Rain = 0
KWE1 152153Z 20015KT 36/19 A2971 RMK A01 T03590192  RH  038%=      5-min Rain = 0
KWE1 152154Z 19015KT 36/19 A2971 RMK A01 T03580193  RH  038%=      5-min Rain = 0
KWE1 152155Z 18013KT 36/20 A2971 RMK A01 T03580195  RH  038%=      5-min Rain = 0
KWE1 152156Z 17012KT 36/20 A2971 RMK A01 T03600195  RH  038%=      5-min Rain = 0
KWE1 152157Z 17013KT 36/19 A2971 RMK A01 T03610194  RH  038%=      5-min Rain = 0
KWE1 152158Z 17017KT 36/20 A2971 RMK A01 T03620197  RH  038%=      5-min Rain = 0
KWE1 152159Z 16017KT 36/20 A2971 RMK A01 T03630196  RH  038%=      5-min Rain = 0
KWE1 152200Z 18016KT 36/20 A2971 RMK A01 T03630196  RH  038%=      5-min Rain = 0
KWE1 152201Z 16017KT 36/20 A2971 RMK A01 T03630198  RH  038%=      5-min Rain = 0
KWE1 152202Z 17017KT 36/20 A2971 RMK A01 T03610199  RH  039%=      5-min Rain = 0
KWE1 152203Z 17017KT 36/20 A2971 RMK A01 T03590199  RH  039%=      5-min Rain = 0
KWE1 152204Z 17015G21KT 36/20 A2971 RMK A01 T03580202  RH  040%=      5-min Rain = 0
KWE1 152205Z 18016KT 36/20 A2971 RMK A01 T03580201  RH  040%=      5-min Rain = 0
KWE1 152206Z 16016KT 36/20 A2971 RMK A01 T03550200  RH  040%=      5-min Rain = 0
KWE1 152207Z 17016KT 35/20 A2971 RMK A01 T03530200  RH  041%=      5-min Rain = 0
KWE1 152208Z 16013KT 35/20 A2971 RMK A01 T03520200  RH  041%=      5-min Rain = 0
KWE1 152209Z 16015KT 35/20 A2971 RMK A01 T03520202  RH  042%=      5-min Rain = 0
KWE1 152210Z 16016KT 35/20 A2971 RMK A01 T03520201  RH  041%=      5-min Rain = 0
KWE1 152211Z 17018KT 35/20 A2971 RMK A01 T03520200  RH  041%=      5-min Rain = 0
KWE1 152212Z 17015KT 35/20 A2971 RMK A01 T03520200  RH  041%=      5-min Rain = 0
KWE1 152213Z 16017KT 35/20 A2971 RMK A01 T03510200  RH  041%=      5-min Rain = 0
KWE1 152214Z 16015KT 35/20 A2971 RMK A01 T03510198  RH  041%=      5-min Rain = 0
KWE1 152215Z 17018KT 35/20 A2971 RMK A01 T03510199  RH  041%=      5-min Rain = 0
KWE1 152216Z 18016KT 35/20 A2971 RMK A01 T03520197  RH  040%=      5-min Rain = 0
KWE1 152217Z 19015KT 35/20 A2971 RMK A01 T03520197  RH  040%=      5-min Rain = 0
KWE1 152218Z 18013KT 35/20 A2971 RMK A01 T03530200  RH  041%=      5-min Rain = 0
KWE1 152219Z 18014KT 36/20 A2971 RMK A01 T03560203  RH  041%=      5-min Rain = 0
KWE1 152220Z 18015KT 36/20 A2971 RMK A01 T03580202  RH  040%=      5-min Rain = 0
KWE1 152221Z 17016KT 36/20 A2971 RMK A01 T03560200  RH  040%=      5-min Rain = 0
KWE1 152222Z 18016KT 36/20 A2971 RMK A01 T03550201  RH  041%=      5-min Rain = 0
KWE1 152223Z 19016KT 36/20 A2971 RMK A01 T03550199  RH  040%=      5-min Rain = 0
KWE1 152224Z 19014G21KT 36/20 A2971 RMK A01 T03550202  RH  041%=      5-min Rain = 0
KWE1 152225Z 19018KT 36/20 A2971 RMK A01 T03570202  RH  041%=      5-min Rain = 0
KWE1 152226Z 18016KT 36/20 A2971 RMK A01 T03570201  RH  040%=      5-min Rain = 0
KWE1 152227Z 18020KT 36/20 A2971 RMK A01 T03550200  RH  040%=      5-min Rain = 0
KWE1 152228Z 18019KT 35/20 A2971 RMK A01 T03540199  RH  041%=      5-min Rain = 0
KWE1 152229Z 17019KT 35/20 A2971 RMK A01 T03540200  RH  040%=      5-min Rain = 0
KWE1 152230Z 17019KT 36/20 A2971 RMK A01 T03560201  RH  040%=      5-min Rain = 0
KWE1 152231Z 17018KT 36/20 A2971 RMK A01 T03570200  RH  040%=      5-min Rain = 0
KWE1 152232Z 18016KT 36/20 A2971 RMK A01 T03550201  RH  041%=      5-min Rain = 0
KWE1 152233Z 17019G24KT 35/20 A2971 RMK A01 T03530200  RH  041%=      5-min Rain = 0
KWE1 152234Z 16020KT 35/20 A2971 RMK A01 T03510200  RH  041%=      5-min Rain = 0
KWE1 152235Z 17020KT 35/20 A2971 RMK A01 T03490200  RH  042%=      5-min Rain = 0
KWE1 152236Z 17020KT 35/20 A2971 RMK A01 T03480200  RH  042%=      5-min Rain = 0
KWE1 152237Z 17019KT 35/20 A2971 RMK A01 T03470199  RH  042%=      5-min Rain = 0
KWE1 152238Z 17019KT 35/20 A297 RMK A01 T03470200  RH  042%=      5-min Rain = 0
KWE1 152239Z 17016KT 35/20 A297 RMK A01 T03470201  RH  042%=      5-min Rain = 0
KWE1 152240Z 16018G23KT 35/20 A297 RMK A01 T03480202  RH  043%=      5-min Rain = 0
KWE1 152241Z 16019G24KT 35/20 A297 RMK A01 T03480203  RH  043%=      5-min Rain = 0
KWE1 152242Z 16017KT 35/20 A297 RMK A01 T03480204  RH  043%=      5-min Rain = 0
KWE1 152243Z 16017KT 35/20 A297 RMK A01 T03490204  RH  043%=      5-min Rain = 0
KWE1 152244Z 15017KT 35/21 A297 RMK A01 T03500205  RH  043%=      5-min Rain = 0
KWE1 152245Z 16015G20KT 35/21 A297 RMK A01 T03510205  RH  043%=      5-min Rain = 0
KWE1 152246Z 16015KT 35/21 A297 RMK A01 T03510206  RH  043%=      5-min Rain = 0
KWE1 152247Z 17017KT 35/21 A297 RMK A01 T03490205  RH  043%=      5-min Rain = 0
KWE1 152248Z 17018KT 35/21 A297 RMK A01 T03470205  RH  043%=      5-min Rain = 0
KWE1 152249Z 17017KT 35/21 A297 RMK A01 T03450205  RH  044%=      5-min Rain = 0
KWE1 152250Z 17015KT 34/21 A297 RMK A01 T03440205  RH  044%=      5-min Rain = 0
KWE1 152251Z 17015KT 34/21 A297 RMK A01 T03430206  RH  045%=      5-min Rain = 0
KWE1 152252Z 16013KT 34/21 A297 RMK A01 T03430207  RH  045%=      5-min Rain = 0
KWE1 152253Z 16017G22KT 34/21 A297 RMK A01 T03430207  RH  045%=      5-min Rain = 0
KWE1 152254Z 16014KT 34/21 A297 RMK A01 T03420207  RH  045%=      5-min Rain = 0
KWE1 152255Z 16016KT 34/21 A297 RMK A01 T03420208  RH  046%=      5-min Rain = 0
KWE1 152256Z 16017KT 34/21 A297 RMK A01 T03420207  RH  046%=      5-min Rain = 0
KWE1 152257Z 16017KT 34/21 A297 RMK A01 T03420207  RH  045%=      5-min Rain = 0
KWE1 152258Z 16018KT 34/21 A297 RMK A01 T03410206  RH  045%=      5-min Rain = 0
KWE1 152259Z 16016KT 34/21 A2969 RMK A01 T03410206  RH  045%=      5-min Rain = 0
KWE1 152300Z 15014KT 34/21 A2969 RMK A01 T03410207  RH  046%=      5-min Rain = 0
KWE1 152301Z 15014G19KT 34/21 A2969 RMK A01 T03410208  RH  046%=      5-min Rain = 0
KWE1 152302Z 16014G20KT 34/21 A2969 RMK A01 T03410210  RH  046%=      5-min Rain = 0
KWE1 152303Z 16017KT 34/21 A2969 RMK A01 T03430207  RH  045%=      5-min Rain = 0
KWE1 152304Z 16017KT 34/21 A2969 RMK A01 T03440207  RH  045%=      5-min Rain = 0
KWE1 152305Z 16015KT 34/21 A2969 RMK A01 T03440208  RH  045%=      5-min Rain = 0
KWE1 152306Z 16016KT 34/21 A2969 RMK A01 T03440209  RH  045%=      5-min Rain = 0
KWE1 152307Z 16016KT 35/21 A2969 RMK A01 T03450209  RH  045%=      5-min Rain = 0
KWE1 152308Z 16015KT 35/21 A2969 RMK A01 T03460211  RH  045%=      5-min Rain = 0
KWE1 152309Z 16013KT 35/21 A2969 RMK A01 T03470211  RH  045%=      5-min Rain = 0
KWE1 152310Z 17015KT 35/21 A2969 RMK A01 T03490211  RH  045%=      5-min Rain = 0
KWE1 152311Z 17016KT 35/21 A2969 RMK A01 T03510210  RH  044%=      5-min Rain = 0
KWE1 152312Z 17016KT 35/21 A2969 RMK A01 T03510209  RH  043%=      5-min Rain = 0
KWE1 152313Z 17019KT 35/21 A2969 RMK A01 T03510209  RH  044%=      5-min Rain = 0
KWE1 152314Z 16016KT 35/21 A2969 RMK A01 T03510209  RH  044%=      5-min Rain = 0
KWE1 152315Z 16018KT 35/21 A2969 RMK A01 T03510210  RH  044%=      5-min Rain = 0
KWE1 152316Z 17019KT 35/21 A2969 RMK A01 T03510211  RH  044%=      5-min Rain = 0
KWE1 152317Z 17015KT 35/21 A2969 RMK A01 T03510211  RH  044%=      5-min Rain = 0
KWE1 152318Z 17018KT 35/21 A2969 RMK A01 T03510211  RH  044%=      5-min Rain = 0
KWE1 152319Z 16019KT 35/21 A2968 RMK A01 T03500211  RH  044%=      5-min Rain = 0
KWE1 152320Z 15021KT 35/21 A2968 RMK A01 T03500210  RH  044%=      5-min Rain = 0
KWE1 152321Z 16021KT 35/21 A2969 RMK A01 T03490209  RH  044%=      5-min Rain = 0
KWE1 152322Z 17019KT 35/21 A2968 RMK A01 T03480211  RH  045%=      5-min Rain = 0
KWE1 152323Z 16018KT 35/21 A2968 RMK A01 T03470211  RH  045%=      5-min Rain = 0
KWE1 152324Z 17016KT 35/21 A2969 RMK A01 T03460211  RH  046%=      5-min Rain = 0
KWE1 152325Z 17015KT 34/21 A2969 RMK A01 T03440212  RH  046%=      5-min Rain = 0
KWE1 152326Z 16014G19KT 34/21 A2969 RMK A01 T03440212  RH  046%=      5-min Rain = 0
KWE1 152327Z 16017KT 34/21 A2969 RMK A01 T03440211  RH  046%=      5-min Rain = 0
KWE1 152328Z 16014KT 34/21 A2969 RMK A01 T03430211  RH  046%=      5-min Rain = 0
KWE1 152329Z 17018KT 34/21 A2969 RMK A01 T03420211  RH  046%=      5-min Rain = 0
KWE1 152330Z 16017KT 34/21 A2969 RMK A01 T03440212  RH  046%=      5-min Rain = 0
KWE1 152331Z 15018KT 35/21 A2969 RMK A01 T03450212  RH  046%=      5-min Rain = 0
KWE1 152332Z 16016KT 35/21 A2969 RMK A01 T03470211  RH  045%=      5-min Rain = 0
KWE1 152333Z 15015KT 35/21 A2969 RMK A01 T03450211  RH  046%=      5-min Rain = 0
KWE1 152334Z 17014KT 34/21 A2969 RMK A01 T03430211  RH  046%=      5-min Rain = 0
KWE1 152335Z 15015KT 34/21 A2969 RMK A01 T03420212  RH  047%=      5-min Rain = 0
KWE1 152336Z 17013KT 34/21 A2969 RMK A01 T03420212  RH  047%=      5-min Rain = 0
KWE1 152337Z 16016G21KT 34/21 A2969 RMK A01 T03410212  RH  047%=      5-min Rain = 0
KWE1 152338Z 16016KT 34/21 A2969 RMK A01 T03400211  RH  047%=      5-min Rain = 0
KWE1 152339Z 17015KT 34/21 A2969 RMK A01 T03400212  RH  047%=      5-min Rain = 0
KWE1 152340Z 17020KT 34/21 A2969 RMK A01 T03390211  RH  047%=      5-min Rain = 0
KWE1 152341Z 17021G26KT 34/21 A2968 RMK A01 T03390210  RH  047%=      5-min Rain = 0
KWE1 152342Z 17018KT 34/21 A2969 RMK A01 T03380209  RH  047%=      5-min Rain = 0
KWE1 152343Z 17018KT 34/21 A2968 RMK A01 T03370210  RH  047%=      5-min Rain = 0
KWE1 152344Z 16017KT 34/21 A2969 RMK A01 T03370210  RH  047%=      5-min Rain = 0
KWE1 152345Z 16019KT 34/21 A2969 RMK A01 T03360209  RH  047%=      5-min Rain = 0
KWE1 152346Z 17018KT 34/21 A2969 RMK A01 T03360208  RH  047%=      5-min Rain = 0
KWE1 152347Z 16015G20KT 34/21 A2969 RMK A01 T03350209  RH  048%=      5-min Rain = 0
KWE1 152348Z 16021G26KT 33/21 A2969 RMK A01 T03340208  RH  048%=      5-min Rain = 0
KWE1 152349Z 16020KT 33/21 A2969 RMK A01 T03340208  RH  048%=      5-min Rain = 0
KWE1 152350Z 17017KT 33/21 A2969 RMK A01 T03340208  RH  048%=      5-min Rain = 0
KWE1 152351Z 17014KT 33/21 A2969 RMK A01 T03340209  RH  048%=      5-min Rain = 0
KWE1 152352Z 17015KT 33/21 A2969 RMK A01 T03340209  RH  048%=      5-min Rain = 0
KWE1 152353Z 16015KT 33/21 A2969 RMK A01 T03330209  RH  048%=      5-min Rain = 0
KWE1 152354Z 17015G20KT 33/21 A2969 RMK A01 T03330209  RH  048%=      5-min Rain = 0
KWE1 152355Z 16016KT 33/21 A2969 RMK A01 T03330209  RH  048%=      5-min Rain = 0
KWE1 152356Z 17017KT 33/21 A2969 RMK A01 T03330208  RH  048%=      5-min Rain = 0
KWE1 152357Z 16018KT 33/21 A2969 RMK A01 T03330208  RH  048%=      5-min Rain = 0
KWE1 152358Z 16015KT 33/21 A2969 RMK A01 T03330208  RH  048%=      5-min Rain = 0
KWE1 152359Z 16020KT 33/21 A2969 RMK A01 T03320208  RH  048%=      5-min Rain = 0
KWE1 160000Z 16017KT 33/21 A2969 RMK A01 T03320207  RH  048%=      5-min Rain = 0
KWE1 160001Z 16016KT 33/21 A2969 RMK A01 T03320207  RH  048%=      5-min Rain = 0
KWE1 160002Z 16018KT 33/21 A2969 RMK A01 T03320208  RH  048%=      5-min Rain = 0
KWE1 160003Z 16017KT 33/21 A2969 RMK A01 T03320207  RH  048%=      5-min Rain = 0
KWE1 160004Z 16017KT 33/21 A2969 RMK A01 T03320208  RH  048%=      5-min Rain = 0
KWE1 160005Z 16017KT 33/21 A2969 RMK A01 T03310208  RH  048%=      5-min Rain = 0
KWE1 160006Z 16016KT 33/21 A2969 RMK A01 T03310208  RH  048%=      5-min Rain = 0
KWE1 160007Z 16016KT 33/21 A2969 RMK A01 T03310208  RH  049%=      5-min Rain = 0
KWE1 160008Z 17015KT 33/21 A2969 RMK A01 T03310208  RH  049%=      5-min Rain = 0
KWE1 160009Z 16015KT 33/21 A2969 RMK A01 T03310209  RH  049%=      5-min Rain = 0
KWE1 160010Z 16015KT 33/21 A2969 RMK A01 T03300209  RH  049%=      5-min Rain = 0
KWE1 160011Z 16015KT 33/21 A2969 RMK A01 T03300209  RH  049%=      5-min Rain = 0
KWE1 160012Z 16015KT 33/21 A2969 RMK A01 T03300208  RH  049%=      5-min Rain = 0
KWE1 160013Z 16012KT 33/21 A297 RMK A01 T03300209  RH  049%=      5-min Rain = 0
KWE1 160014Z 17013KT 33/21 A297 RMK A01 T03300210  RH  049%=      5-min Rain = 0
KWE1 160015Z 16012KT 33/21 A297 RMK A01 T03290209  RH  049%=      5-min Rain = 0
KWE1 160016Z 16015KT 33/21 A297 RMK A01 T03290209  RH  049%=      5-min Rain = 0
KWE1 160017Z 16014KT 33/21 A297 RMK A01 T03290208  RH  049%=      5-min Rain = 0
KWE1 160018Z 16014G19KT 33/21 A297 RMK A01 T03290208  RH  049%=      5-min Rain = 0
KWE1 160019Z 16013KT 33/21 A297 RMK A01 T03290208  RH  049%=      5-min Rain = 0
KWE1 160020Z 16014KT 33/21 A297 RMK A01 T03280208  RH  049%=      5-min Rain = 0
KWE1 160021Z 16014KT 33/21 A297 RMK A01 T03280208  RH  049%=      5-min Rain = 0
KWE1 160022Z 16013KT 33/21 A297 RMK A01 T03280208  RH  049%=      5-min Rain = 0
KWE1 160023Z 16015KT 33/21 A297 RMK A01 T03280208  RH  049%=      5-min Rain = 0
KWE1 160024Z 16015KT 33/21 A297 RMK A01 T03280207  RH  049%=      5-min Rain = 0
KWE1 160025Z 16014KT 33/21 A297 RMK A01 T03280207  RH  049%=      5-min Rain = 0
KWE1 160026Z 16013KT 33/21 A297 RMK A01 T03280207  RH  049%=      5-min Rain = 0
KWE1 160027Z 16014KT 33/21 A297 RMK A01 T03270206  RH  049%=      5-min Rain = 0
KWE1 160028Z 17014KT 33/21 A297 RMK A01 T03270207  RH  049%=      5-min Rain = 0
KWE1 160029Z 16014KT 33/21 A297 RMK A01 T03270206  RH  049%=      5-min Rain = 0
KWE1 160030Z 17013KT 33/21 A297 RMK A01 T03270207  RH  049%=      5-min Rain = 0
KWE1 160031Z 17014KT 33/21 A297 RMK A01 T03270206  RH  049%=      5-min Rain = 0
KWE1 160032Z 17016KT 33/21 A297 RMK A01 T03270206  RH  049%=      5-min Rain = 0
KWE1 160033Z 17015KT 33/21 A2971 RMK A01 T03260205  RH  049%=      5-min Rain = 0
KWE1 160034Z 17015KT 33/21 A2971 RMK A01 T03260205  RH  049%=      5-min Rain = 0
KWE1 160035Z 17012KT 33/21 A2971 RMK A01 T03260206  RH  049%=      5-min Rain = 0
KWE1 160036Z 17013KT 33/21 A2971 RMK A01 T03260206  RH  049%=      5-min Rain = 0
KWE1 160037Z 17014KT 33/21 A2971 RMK A01 T03260206  RH  049%=      5-min Rain = 0
KWE1 160038Z 17012KT 33/21 A2971 RMK A01 T03250206  RH  049%=      5-min Rain = 0
KWE1 160039Z 17011KT 33/21 A2971 RMK A01 T03260207  RH  050%=      5-min Rain = 0
KWE1 160040Z 16012KT 33/21 A2971 RMK A01 T03250206  RH  050%=      5-min Rain = 0
KWE1 160041Z 16013KT 33/21 A2971 RMK A01 T03250206  RH  050%=      5-min Rain = 0
KWE1 160042Z 16012KT 32/21 A2971 RMK A01 T03240206  RH  050%=      5-min Rain = 0
KWE1 160043Z 17012KT 33/21 A2972 RMK A01 T03250206  RH  050%=      5-min Rain = 0
KWE1 160044Z 17014KT 32/21 A2972 RMK A01 T03240206  RH  050%=      5-min Rain = 0
KWE1 160045Z 17016KT 32/21 A2972 RMK A01 T03240206  RH  050%=      5-min Rain = 0
KWE1 160046Z 17015KT 32/21 A2972 RMK A01 T03240206  RH  050%=      5-min Rain = 0
KWE1 160047Z 17014KT 32/21 A2972 RMK A01 T03240206  RH  050%=      5-min Rain = 0
KWE1 160048Z 17013KT 32/21 A2972 RMK A01 T03240206  RH  050%=      5-min Rain = 0
KWE1 160049Z 17014KT 32/21 A2972 RMK A01 T03240206  RH  050%=      5-min Rain = 0
KWE1 160050Z 17015KT 32/21 A2972 RMK A01 T03240206  RH  050%=      5-min Rain = 0
KWE1 160051Z 17013KT 32/21 A2972 RMK A01 T03230206  RH  050%=      5-min Rain = 0
KWE1 160052Z 17014KT 32/21 A2972 RMK A01 T03230206  RH  050%=      5-min Rain = 0
KWE1 160053Z 17015KT 32/21 A2972 RMK A01 T03230206  RH  050%=      5-min Rain = 0
KWE1 160054Z 17014KT 32/21 A2972 RMK A01 T03230205  RH  050%=      5-min Rain = 0
KWE1 160055Z 16012KT 32/21 A2972 RMK A01 T03230206  RH  050%=      5-min Rain = 0
KWE1 160056Z 17015KT 32/21 A2972 RMK A01 T03230205  RH  050%=      5-min Rain = 0
KWE1 160057Z 17015KT 32/21 A2972 RMK A01 T03230205  RH  050%=      5-min Rain = 0
KWE1 160058Z 17017KT 32/21 A2972 RMK A01 T03230205  RH  050%=      5-min Rain = 0
KWE1 160059Z 17017KT 32/20 A2972 RMK A01 T03230204  RH  049%=      5-min Rain = 0
KWE1 160100Z 17016KT 32/20 A2973 RMK A01 T03230204  RH  050%=      5-min Rain = 0
KWE1 160101Z 17016KT 32/21 A2973 RMK A01 T03230206  RH  050%=      5-min Rain = 0
KWE1 160102Z 18016KT 32/21 A2973 RMK A01 T03220206  RH  051%=      5-min Rain = 0
KWE1 160103Z 18016KT 32/21 A2973 RMK A01 T03210205  RH  050%=      5-min Rain = 0
KWE1 160104Z 18017KT 32/21 A2973 RMK A01 T03210205  RH  050%=      5-min Rain = 0
KWE1 160105Z 18015KT 32/21 A2973 RMK A01 T03210205  RH  050%=      5-min Rain = 0
KWE1 160106Z 18016KT 32/21 A2973 RMK A01 T03210205  RH  051%=      5-min Rain = 0
KWE1 160107Z 18016KT 32/21 A2973 RMK A01 T03210206  RH  051%=      5-min Rain = 0
KWE1 160108Z 18017KT 32/21 A2973 RMK A01 T03210205  RH  051%=      5-min Rain = 0
KWE1 160109Z 18015KT 32/20 A2973 RMK A01 T03200204  RH  050%=      5-min Rain = 0
KWE1 160110Z 18015KT 32/20 A2973 RMK A01 T03210204  RH  050%=      5-min Rain = 0
KWE1 160111Z 18014KT 32/20 A2973 RMK A01 T03210204  RH  050%=      5-min Rain = 0
KWE1 160112Z 18015KT 32/21 A2973 RMK A01 T03210205  RH  050%=      5-min Rain = 0
KWE1 160113Z 18012KT 32/21 A2973 RMK A01 T03210205  RH  050%=      5-min Rain = 0
KWE1 160114Z 17010KT 32/20 A2973 RMK A01 T03200204  RH  050%=      5-min Rain = 0
KWE1 160115Z 15010KT 32/21 A2972 RMK A01 T03200205  RH  051%=      5-min Rain = 0
KWE1 160116Z 15014KT 32/20 A2972 RMK A01 T03200204  RH  050%=      5-min Rain = 0
KWE1 160117Z 15015KT 32/20 A2972 RMK A01 T03200203  RH  050%=      5-min Rain = 0
KWE1 160118Z 15017KT 32/20 A2971 RMK A01 T03200203  RH  050%=      5-min Rain = 0
KWE1 160119Z 15013KT 32/20 A2971 RMK A01 T03200202  RH  050%=      5-min Rain = 0
KWE1 160120Z 14012KT 32/20 A2971 RMK A01 T03200204  RH  050%=      5-min Rain = 0
KWE1 160121Z 15013KT 32/21 A297 RMK A01 T03200205  RH  051%=      5-min Rain = 0
KWE1 160122Z 15014KT 32/21 A297 RMK A01 T03180205  RH  051%=      5-min Rain = 0
KWE1 160123Z 14014KT 32/21 A297 RMK A01 T03170205  RH  051%=      5-min Rain = 0
KWE1 160124Z 14015KT 32/20 A2969 RMK A01 T03160204  RH  051%=      5-min Rain = 0
KWE1 160125Z 14016KT 32/20 A2969 RMK A01 T03160204  RH  052%=      5-min Rain = 0
KWE1 160126Z 14017KT 32/21 A2968 RMK A01 T03160205  RH  052%=      5-min Rain = 0
KWE1 160127Z 14016KT 32/21 A2968 RMK A01 T03150205  RH  052%=      5-min Rain = 0
KWE1 160128Z 13016KT 32/21 A2968 RMK A01 T03150205  RH  052%=      5-min Rain = 0
KWE1 160129Z 13016KT 31/20 A2968 RMK A01 T03140204  RH  052%=      5-min Rain = 0
KWE1 160130Z 13014KT 31/21 A2967 RMK A01 T03140205  RH  052%=      5-min Rain = 0
KWE1 160131Z 14013KT 31/21 A2967 RMK A01 T03120205  RH  053%=      5-min Rain = 0
KWE1 160132Z 14014KT 31/21 A2967 RMK A01 T03110205  RH  053%=      5-min Rain = 0
KWE1 160133Z 13013KT 31/20 A2968 RMK A01 T03110203  RH  053%=      5-min Rain = 0
KWE1 160134Z 15015KT 31/20 A2968 RMK A01 T03110203  RH  053%=      5-min Rain = 0
KWE1 160135Z 16015KT 31/20 A2969 RMK A01 T03120204  RH  053%=      5-min Rain = 0
KWE1 160136Z 16015KT 31/20 A2969 RMK A01 T03120204  RH  053%=      5-min Rain = 0
KWE1 160137Z 16015KT 31/20 A297 RMK A01 T03110203  RH  053%=      5-min Rain = 0
KWE1 160138Z 16014KT 31/20 A297 RMK A01 T03110203  RH  053%=      5-min Rain = 0
KWE1 160139Z 16013KT 31/20 A297 RMK A01 T03110202  RH  052%=      5-min Rain = 0
KWE1 160140Z 16014KT 31/20 A297 RMK A01 T03110202  RH  052%=      5-min Rain = 0
KWE1 160141Z 16016KT 31/20 A2969 RMK A01 T03120203  RH  052%=      5-min Rain = 0
KWE1 160142Z 16017KT 31/20 A2969 RMK A01 T03110203  RH  052%=      5-min Rain = 0
KWE1 160143Z 15018KT 31/20 A2969 RMK A01 T03120203  RH  052%=      5-min Rain = 0
KWE1 160144Z 15017KT 31/20 A297 RMK A01 T03130203  RH  052%=      5-min Rain = 0
KWE1 160145Z 15017KT 31/20 A297 RMK A01 T03130203  RH  052%=      5-min Rain = 0
KWE1 160146Z 15013KT 31/20 A297 RMK A01 T03130203  RH  052%=      5-min Rain = 0
KWE1 160147Z 15014KT 31/20 A297 RMK A01 T03130204  RH  052%=      5-min Rain = 0
KWE1 160148Z 15015KT 31/20 A297 RMK A01 T03120204  RH  053%=      5-min Rain = 0
KWE1 160149Z 15014KT 31/20 A297 RMK A01 T03120204  RH  053%=      5-min Rain = 0
KWE1 160150Z 15015KT 31/20 A297 RMK A01 T03120204  RH  053%=      5-min Rain = 0
KWE1 160151Z 15015KT 31/20 A297 RMK A01 T03110204  RH  053%=      5-min Rain = 0
KWE1 160152Z 15015KT 31/20 A297 RMK A01 T03110204  RH  053%=      5-min Rain = 0
KWE1 160153Z 16016KT 31/20 A297 RMK A01 T03110204  RH  053%=      5-min Rain = 0
KWE1 160154Z 16015KT 31/20 A297 RMK A01 T03110204  RH  053%=      5-min Rain = 0
KWE1 160155Z 16016KT 31/21 A2971 RMK A01 T03110205  RH  053%=      5-min Rain = 0
KWE1 160156Z 16015KT 31/20 A2971 RMK A01 T03110204  RH  053%=      5-min Rain = 0
KWE1 160157Z 16015KT 31/21 A2971 RMK A01 T03100205  RH  053%=      5-min Rain = 0
KWE1 160158Z 16016KT 31/21 A2971 RMK A01 T03100205  RH  054%=      5-min Rain = 0
KWE1 160159Z 16017KT 31/21 A297 RMK A01 T03100205  RH  053%=      5-min Rain = 0
KWE1 160200Z 16016KT 31/21 A297 RMK A01 T03100205  RH  053%=      5-min Rain = 0
KWE1 160201Z 15018KT 31/20 A297 RMK A01 T03100204  RH  053%=      5-min Rain = 0
KWE1 160202Z 16018KT 31/20 A297 RMK A01 T03100204  RH  053%=      5-min Rain = 0
KWE1 160203Z 16016KT 31/20 A297 RMK A01 T03100204  RH  053%=      5-min Rain = 0
KWE1 160204Z 16017KT 31/21 A297 RMK A01 T03100205  RH  054%=      5-min Rain = 0
KWE1 160205Z 16016KT 31/21 A297 RMK A01 T03090205  RH  054%=      5-min Rain = 0
KWE1 160206Z 16018KT 31/21 A297 RMK A01 T03080205  RH  054%=      5-min Rain = 0
KWE1 160207Z 16017KT 31/21 A297 RMK A01 T03080205  RH  054%=      5-min Rain = 0
KWE1 160208Z 16016KT 31/21 A297 RMK A01 T03070205  RH  055%=      5-min Rain = 0
KWE1 160209Z 16015KT 31/21 A297 RMK A01 T03070205  RH  055%=      5-min Rain = 0
KWE1 160210Z 16018KT 31/21 A297 RMK A01 T03060205  RH  055%=      5-min Rain = 0
KWE1 160211Z 16018KT 31/20 A297 RMK A01 T03060204  RH  055%=      5-min Rain = 0
KWE1 160212Z 16016KT 31/20 A2971 RMK A01 T03070204  RH  054%=      5-min Rain = 0
KWE1 160213Z 16015KT 31/21 A2971 RMK A01 T03070205  RH  054%=      5-min Rain = 0
KWE1 160214Z 16014KT 31/21 A2971 RMK A01 T03070205  RH  055%=      5-min Rain = 0
KWE1 160215Z 16015KT 31/21 A2971 RMK A01 T03070206  RH  055%=      5-min Rain = 0
KWE1 160216Z 16015KT 31/21 A2971 RMK A01 T03060206  RH  055%=      5-min Rain = 0
KWE1 160217Z 16014KT 31/21 A2971 RMK A01 T03060206  RH  055%=      5-min Rain = 0
KWE1 160218Z 16013KT 31/21 A2971 RMK A01 T03050205  RH  055%=      5-min Rain = 0
KWE1 160219Z 16014KT 31/21 A2971 RMK A01 T03050206  RH  055%=      5-min Rain = 0
KWE1 160220Z 15014KT 31/21 A2971 RMK A01 T03050206  RH  055%=      5-min Rain = 0
KWE1 160221Z 16015KT 31/21 A2971 RMK A01 T03050206  RH  056%=      5-min Rain = 0
KWE1 160222Z 15017KT 30/21 A2971 RMK A01 T03040206  RH  056%=      5-min Rain = 0
KWE1 160223Z 16017KT 31/21 A2971 RMK A01 T03050205  RH  055%=      5-min Rain = 0
KWE1 160224Z 16014KT 31/21 A2971 RMK A01 T03050205  RH  055%=      5-min Rain = 0
KWE1 160225Z 16014KT 31/21 A2971 RMK A01 T03050206  RH  056%=      5-min Rain = 0
KWE1 160226Z 15015KT 30/21 A2971 RMK A01 T03040206  RH  056%=      5-min Rain = 0
KWE1 160227Z 16014KT 30/21 A297 RMK A01 T03030206  RH  056%=      5-min Rain = 0
KWE1 160228Z 16014KT 30/21 A297 RMK A01 T03040206  RH  056%=      5-min Rain = 0
KWE1 160229Z 16015KT 30/21 A297 RMK A01 T03030206  RH  056%=      5-min Rain = 0
KWE1 160230Z 16017KT 30/21 A297 RMK A01 T03030205  RH  056%=      5-min Rain = 0
KWE1 160231Z 16015KT 30/20 A297 RMK A01 T03030204  RH  056%=      5-min Rain = 0
KWE1 160232Z 16015KT 30/21 A297 RMK A01 T03040205  RH  056%=      5-min Rain = 0
KWE1 160233Z 16016KT 30/21 A297 RMK A01 T03040205  RH  055%=      5-min Rain = 0
KWE1 160234Z 16017G22KT 30/20 A297 RMK A01 T03040204  RH  055%=      5-min Rain = 0
KWE1 160235Z 16015KT 30/20 A297 RMK A01 T03040204  RH  055%=      5-min Rain = 0
KWE1 160236Z 15015KT 30/20 A2971 RMK A01 T03040203  RH  055%=      5-min Rain = 0
KWE1 160237Z 15012G17KT 30/20 A2971 RMK A01 T03040204  RH  055%=      5-min Rain = 0
KWE1 160238Z 16011KT 30/20 A2972 RMK A01 T03040204  RH  055%=      5-min Rain = 0
KWE1 160239Z 16009KT 30/20 A2972 RMK A01 T03040204  RH  055%=      5-min Rain = 0
KWE1 160240Z 16003G8KT 30/20 A2973 RMK A01 T03040204  RH  055%=      5-min Rain = 0
KWE1 160241Z 30002KT 30/20 A2974 RMK A01 T03040204  RH  055%=      5-min Rain = 0
KWE1 160242Z 34009G14KT 30/20 A2975 RMK A01 T03030202  RH  055%=      5-min Rain = 0
KWE1 160243Z 33010KT 30/16 A2976 RMK A01 T02990163  RH  044%=      5-min Rain = 0
KWE1 160244Z 32009KT 29/15 A2976 RMK A01 T02920147  RH  041%=      5-min Rain = 0
KWE1 160245Z 31008KT 29/14 A2976 RMK A01 T02870142  RH  041%=      5-min Rain = 0
KWE1 160246Z 33005KT 28/14 A2976 RMK A01 T02840142  RH  042%=      5-min Rain = 0
KWE1 160247Z 35008KT 28/14 A2976 RMK A01 T02820143  RH  042%=      5-min Rain = 0
KWE1 160248Z 35010KT 28/14 A2975 RMK A01 T02800140  RH  042%=      5-min Rain = 0
KWE1 160249Z 35009KT 28/14 A2975 RMK A01 T02780140  RH  043%=      5-min Rain = 0
KWE1 160250Z 35009KT 28/14 A2975 RMK A01 T02760142  RH  044%=      5-min Rain = 0
KWE1 160251Z 35008KT 28/14 A2974 RMK A01 T02750143  RH  044%=      5-min Rain = 0
KWE1 160252Z 35006KT 27/14 A2974 RMK A01 T02740141  RH  044%=      5-min Rain = 0
KWE1 160253Z 34004KT 27/14 A2974 RMK A01 T02740142  RH  044%=      5-min Rain = 0
KWE1 160254Z 34004KT 27/14 A2974 RMK A01 T02740142  RH  044%=      5-min Rain = 0
KWE1 160255Z 35005KT 27/14 A2974 RMK A01 T02740144  RH  045%=      5-min Rain = 0
KWE1 160256Z 34007KT 27/15 A2973 RMK A01 T02730146  RH  046%=      5-min Rain = 0
KWE1 160257Z 36007KT 27/15 A2973 RMK A01 T02730146  RH  046%=      5-min Rain = 0
KWE1 160258Z 02008KT 27/15 A2974 RMK A01 T02730146  RH  046%=      5-min Rain = 0
KWE1 160259Z 03007KT 27/15 A2974 RMK A01 T02730148  RH  046%=      5-min Rain = 0
KWE1 160300Z 01008KT 27/15 A2975 RMK A01 T02740152  RH  047%=      5-min Rain = 0
KWE1 160301Z 33004KT 28/16 A2976 RMK A01 T02760160  RH  049%=      5-min Rain = 0
KWE1 160302Z 31006KT 28/16 A2976 RMK A01 T02780162  RH  049%=      5-min Rain = 0
KWE1 160303Z 30005KT 28/17 A2976 RMK A01 T02810167  RH  050%=      5-min Rain = 0
KWE1 160304Z 28001KT 29/17 A2976 RMK A01 T02860168  RH  049%=      5-min Rain = 0
KWE1 160305Z 18000KT 29/17 A2976 RMK A01 T02880170  RH  049%=      5-min Rain = 0
KWE1 160306Z 23000KT 29/17 A2976 RMK A01 T02900170  RH  048%=      5-min Rain = 0
KWE1 160307Z 02003KT 29/17 A2975 RMK A01 T02910172  RH  049%=      5-min Rain = 0
KWE1 160308Z 03008KT 29/18 A2973 RMK A01 T02910175  RH  049%=      5-min Rain = 0
KWE1 160309Z 07003KT 29/18 A2973 RMK A01 T02910178  RH  051%=      5-min Rain = 0
KWE1 160310Z 28001KT 29/18 A2974 RMK A01 T02920182  RH  051%=      5-min Rain = 0
KWE1 160311Z 27002KT 30/19 A2973 RMK A01 T02950186  RH  052%=      5-min Rain = 0
KWE1 160312Z 11003KT 30/19 A2973 RMK A01 T02990185  RH  050%=      5-min Rain = 0
KWE1 160313Z 09005KT 30/18 A2974 RMK A01 T02990180  RH  049%=      5-min Rain = 0
KWE1 160314Z 09005KT 30/18 A2974 RMK A01 T02980179  RH  049%=      5-min Rain = 0
KWE1 160315Z 11005KT 30/18 A2974 RMK A01 T02960180  RH  050%=      5-min Rain = 0
KWE1 160316Z 12005KT 29/18 A2974 RMK A01 T02940180  RH  050%=      5-min Rain = 0
KWE1 160317Z 13006KT 29/18 A2974 RMK A01 T02930175  RH  049%=      5-min Rain = 0
KWE1 160318Z 13006KT 29/17 A2974 RMK A01 T02910173  RH  049%=      5-min Rain = 0
KWE1 160319Z 13006KT 29/17 A2974 RMK A01 T02900174  RH  049%=      5-min Rain = 0
KWE1 160320Z 14007KT 29/18 A2975 RMK A01 T02900177  RH  050%=      5-min Rain = 0
KWE1 160321Z 13006KT 29/18 A2975 RMK A01 T02900175  RH  050%=      5-min Rain = 0
KWE1 160322Z 16006KT 29/17 A2976 RMK A01 T02890172  RH  049%=      5-min Rain = 0
KWE1 160323Z 17005KT 29/17 A2977 RMK A01 T02870168  RH  048%=      5-min Rain = 0
KWE1 160324Z 18004KT 29/17 A2978 RMK A01 T02860167  RH  049%=      5-min Rain = 0
KWE1 160325Z 19007KT 29/17 A2978 RMK A01 T02850171  RH  050%=      5-min Rain = 0
KWE1 160326Z 22006KT 29/18 A2979 RMK A01 T02870178  RH  052%=      5-min Rain = 0
KWE1 160327Z 26006KT 29/18 A2979 RMK A01 T02910183  RH  052%=      5-min Rain = 0
KWE1 160328Z 25011KT 29/18 A298 RMK A01 T02940184  RH  051%=      5-min Rain = 0
KWE1 160329Z 28024G43KT 30/19 A2983 RMK A01 T02950185  RH  051%=      5-min Rain = 0
KWE1 160330Z 28034G41KT 28/16 A2984 RMK A01 T02800163  RH  049%=      5-min Rain = 0
KWE1 160331Z 29030G39KT 25/15 A2983 RMK A01 T02470154  RH  056%=      5-min Rain = 0
KWE1 160332Z 30027G33KT 23/16 A2983 RMK A01 T02310156  RH  063%=      5-min Rain = 0
KWE1 160333Z 30027G37KT 22/16 A2983 RMK A01 T02230157  RH  066%=      5-min Rain = 0
KWE1 160334Z 31024G31KT 22/16 A2982 RMK A01 T02170156  RH  068%=      5-min Rain = 0
KWE1 160335Z 29024G31KT 21/16 A2982 RMK A01 T02130157  RH  070%=      5-min Rain = 0
KWE1 160336Z 30017G23KT 21/16 A2982 RMK A01 T02080157  RH  073%=      5-min Rain = 0
KWE1 160337Z 30028G49KT 21/16 A2983 RMK A01 T02050158  RH  075%=      5-min Rain = 0
KWE1 160338Z 30043G50KT 21/16 A2983 RMK A01 T02060158  RH  074%=      5-min Rain = 0
KWE1 160339Z 31035G44KT 21/16 A2984 RMK A01 T02090160  RH  074%=      5-min Rain = 0
KWE1 160340Z 30040G51KT 21/16 A2983 RMK A01 T02090163  RH  075%=      5-min Rain = 0
KWE1 160341Z 30036G48KT 21/17 A2984 RMK A01 T02070167  RH  078%=      5-min Rain = 0
KWE1 160342Z 31034G42KT 21/17 A2983 RMK A01 T02050170  RH  080%=      5-min Rain = 0
KWE1 160343Z 31037G43KT 21/17 A2983 RMK A01 T02050172  RH  082%=      5-min Rain = 0
KWE1 160344Z 30040G50KT 21/17 A2985 RMK A01 T02050170  RH  080%=      5-min Rain = 0
KWE1 160345Z 32023G28KT 21/17 A2986 RMK A01 T02050168  RH  079%=      5-min Rain = 0
KWE1 160346Z 32017G22KT 20/17 A2986 RMK A01 T02030169  RH  081%=      5-min Rain = 0
KWE1 160347Z 31026G42KT 20/17 A2986 RMK A01 T02000169  RH  083%=      5-min Rain = 0
KWE1 160348Z 31022G31KT 20/17 A2985 RMK A01 T01960166  RH  083%=      5-min Rain = 0.01
KWE1 160349Z 33033G39KT 19/17 A2985 RMK A01 T01930166  RH  084%=      5-min Rain = 0.02
KWE1 160350Z 32032G38KT 19/17 A2984 RMK A01 T01880165  RH  086%=      5-min Rain = 0.01
KWE1 160351Z 31026KT 19/17 A2982 RMK A01 T01850167  RH  089%=      5-min Rain = 0.01
KWE1 160352Z 30032G41KT 18/17 A2982 RMK A01 T01830168  RH  091%=      5-min Rain = 0.02
KWE1 160353Z 30036G42KT 18/17 A2981 RMK A01 T01820169  RH  092%=      5-min Rain = 0.01
KWE1 160354Z 30032G37KT 18/17 A2981 RMK A01 T01820170  RH  092%=      5-min Rain = 0.02
KWE1 160355Z 30031G38KT 18/17 A2982 RMK A01 T01820171  RH  093%=      5-min Rain = 0.02
KWE1 160356Z 31031G40KT 18/17 A2982 RMK A01 T01810171  RH  094%=      5-min Rain = 0.02
KWE1 160357Z 31034G42KT 18/17 A2983 RMK A01 T01800171  RH  094%=      5-min Rain = 0.02
KWE1 160358Z 31030G35KT 18/17 A2984 RMK A01 T01780167  RH  094%=      5-min Rain = 0.03
KWE1 160359Z 31027G35KT 18/17 A2985 RMK A01 T01760166  RH  094%=      5-min Rain = 0.03
KWE1 160400Z 30022KT 18/17 A2987 RMK A01 T01760167  RH  094%=      5-min Rain = 0.02
KWE1 160401Z 29021KT 18/17 A2988 RMK A01 T01770168  RH  095%=      5-min Rain = 0.02
KWE1 160402Z 30020KT 18/17 A2989 RMK A01 T01770168  RH  095%=      5-min Rain = 0.02
KWE1 160403Z 31010G17KT 18/17 A2989 RMK A01 T01760168  RH  095%=      5-min Rain = 0.08
KWE1 160404Z 34010G15KT 18/17 A2988 RMK A01 T01760168  RH  095%=      5-min Rain = 0.07
KWE1 160405Z 00013KT 18/17 A2987 RMK A01 T01760168  RH  095%=      5-min Rain = 0.04
KWE1 160406Z 00013KT 18/17 A2986 RMK A01 T01750167  RH  095%=      5-min Rain = 0.02
KWE1 160407Z 01010KT 18/17 A2985 RMK A01 T01750167  RH  095%=      5-min Rain = 0.03
KWE1 160408Z 01009KT 18/17 A2985 RMK A01 T01750167  RH  095%=      5-min Rain = 0.03
KWE1 160409Z 01012KT 18/17 A2986 RMK A01 T01750168  RH  095%=      5-min Rain = 0.02
KWE1 160410Z 33007KT 18/17 A2988 RMK A01 T01750168  RH  095%=      5-min Rain = 0.02
KWE1 160411Z 33008KT 18/17 A2989 RMK A01 T01760169  RH  095%=      5-min Rain = 0.02
KWE1 160412Z 32005KT 18/17 A299 RMK A01 T01770169  RH  095%=      5-min Rain = 0.03
KWE1 160413Z 29009KT 18/17 A299 RMK A01 T01790170  RH  094%=      5-min Rain = 0.02
KWE1 160414Z 27009KT 18/17 A2991 RMK A01 T01810170  RH  094%=      5-min Rain = 0.02
KWE1 160415Z 26010KT 18/17 A2992 RMK A01 T01820170  RH  093%=      5-min Rain = 0.02
KWE1 160416Z 27012G17KT 18/17 A2992 RMK A01 T01830171  RH  092%=      5-min Rain = 0.01
KWE1 160417Z 27014G21KT 19/17 A2992 RMK A01 T01860173  RH  092%=      5-min Rain = 0.02
KWE1 160418Z 27017G23KT 19/18 A2992 RMK A01 T01910177  RH  092%=      5-min Rain = 0.02
KWE1 160419Z 27023G34KT 19/18 A2992 RMK A01 T01930177  RH  090%=      5-min Rain = 0.02
KWE1 160420Z 26026G33KT 19/17 A2991 RMK A01 T01940173  RH  087%=      5-min Rain = 0.02
KWE1 160421Z 25029G42KT 19/17 A2991 RMK A01 T01930169  RH  086%=      5-min Rain = 0.01
KWE1 160422Z 25029G37KT 19/17 A299 RMK A01 T01910167  RH  086%=      5-min Rain = 0.03
KWE1 160423Z 26028G33KT 19/16 A299 RMK A01 T01870163  RH  086%=      5-min Rain = 0.03
KWE1 160424Z 25026G34KT 18/16 A299 RMK A01 T01830160  RH  086%=      5-min Rain = 0.03
KWE1 160425Z 25024G30KT 18/16 A299 RMK A01 T01820160  RH  086%=      5-min Rain = 0.03
KWE1 160426Z 25018G24KT 18/16 A299 RMK A01 T01830160  RH  086%=      5-min Rain = 0.04
KWE1 160427Z 25016KT 18/16 A2989 RMK A01 T01830160  RH  087%=      5-min Rain = 0.04
KWE1 160428Z 24015KT 18/16 A2989 RMK A01 T01830162  RH  087%=      5-min Rain = 0.03
KWE1 160429Z 24014KT 18/16 A2989 RMK A01 T01830163  RH  088%=      5-min Rain = 0.02
KWE1 160430Z 23013G18KT 18/16 A2989 RMK A01 T01830163  RH  088%=      5-min Rain = 0.02
KWE1 160431Z 22015G21KT 18/16 A2988 RMK A01 T01830164  RH  088%=      5-min Rain = 0.02
KWE1 160432Z 22016KT 18/16 A2988 RMK A01 T01840163  RH  088%=      5-min Rain = 0.02
KWE1 160433Z 21018KT 19/16 A2987 RMK A01 T01860163  RH  087%=      5-min Rain = 0
KWE1 160434Z 20018KT 19/16 A2987 RMK A01 T01880163  RH  085%=      5-min Rain = 0.01
KWE1 160435Z 20017KT 19/16 A2986 RMK A01 T01900162  RH  083%=      5-min Rain = 0.02
KWE1 160436Z 20019KT 19/16 A2987 RMK A01 T01910161  RH  083%=      5-min Rain = 0
KWE1 160437Z 19017KT 19/16 A2986 RMK A01 T01910162  RH  083%=      5-min Rain = 0.01
KWE1 160438Z 20015KT 19/16 A2986 RMK A01 T01910161  RH  082%=      5-min Rain = 0
KWE1 160439Z 20013KT 19/16 A2985 RMK A01 T01940159  RH  080%=      5-min Rain = 0
KWE1 160440Z 19010KT 19/16 A2985 RMK A01 T01940160  RH  081%=      5-min Rain = 0
KWE1 160441Z 18009KT 19/16 A2985 RMK A01 T01940161  RH  081%=      5-min Rain = 0
KWE1 160442Z 17010KT 19/16 A2984 RMK A01 T01940163  RH  082%=      5-min Rain = 0
KWE1 160443Z 17010KT 19/17 A2984 RMK A01 T01940165  RH  083%=      5-min Rain = 0.01
KWE1 160444Z 17009KT 19/16 A2984 RMK A01 T01940164  RH  083%=      5-min Rain = 0
KWE1 160445Z 16009KT 19/16 A2984 RMK A01 T01940162  RH  082%=      5-min Rain = 0
KWE1 160446Z 16010KT 19/16 A2984 RMK A01 T01940160  RH  081%=      5-min Rain = 0
KWE1 160447Z 15010KT 20/16 A2984 RMK A01 T01960159  RH  079%=      5-min Rain = 0
KWE1 160448Z 13009KT 20/16 A2984 RMK A01 T01980161  RH  080%=      5-min Rain = 0
KWE1 160449Z 12008KT 20/16 A2984 RMK A01 T01980159  RH  078%=      5-min Rain = 0
KWE1 160450Z 11007KT 20/16 A2983 RMK A01 T01990156  RH  076%=      5-min Rain = 0
KWE1 160451Z 11008KT 20/16 A2983 RMK A01 T02000157  RH  076%=      5-min Rain = 0
KWE1 160452Z 12009KT 20/16 A2983 RMK A01 T02010155  RH  075%=      5-min Rain = 0
KWE1 160453Z 13010KT 20/16 A2983 RMK A01 T02030156  RH  074%=      5-min Rain = 0
KWE1 160454Z 14012KT 21/16 A2983 RMK A01 T02050159  RH  075%=      5-min Rain = 0
KWE1 160455Z 13011KT 21/16 A2983 RMK A01 T02060157  RH  074%=      5-min Rain = 0
KWE1 160456Z 12011KT 21/16 A2983 RMK A01 T02080156  RH  072%=      5-min Rain = 0
KWE1 160457Z 12011KT 21/16 A2982 RMK A01 T02100155  RH  071%=      5-min Rain = 0
KWE1 160458Z 12011KT 21/15 A2982 RMK A01 T02100153  RH  070%=      5-min Rain = 0
KWE1 160459Z 11011KT 21/15 A2981 RMK A01 T02120153  RH  069%=      5-min Rain = 0

Page generated in 0.1915 seconds.